<?xml version="1.0" encoding="UTF-8" standalone="no" ?>
<gpx xmlns="http://www.topografix.com/GPX/1/1" xmlns:xsi="http://www.w3.org/2001/XMLSchema-instance" xsi:schemaLocation="http://www.topografix.com/GPX/1/1 http://www.topografix.com/GPX/1/1/gpx.xsd" version="1.1" creator="VisuGPX - https://www.visugpx.com">
  <metadata>
    <name>Bourg de Sirod,Les Pertes de l'Ain,belvédère des éperons.</name>
  </metadata>
  <trk>
    <name><![CDATA[Bourg de Sirod,Les Pertes de l'Ain,belvédère des éperons._1]]></name>
    <trkseg>
      <trkpt lat="46.72814" lon="5.96015">
        <ele>528.2</ele>
        <time>2019-11-30T12:30:14Z</time>
      </trkpt>
      <trkpt lat="46.72817" lon="5.9601">
        <ele>570</ele>
        <time>2019-11-30T12:30:36Z</time>
      </trkpt>
      <trkpt lat="46.72817" lon="5.96001">
        <ele>571.7</ele>
        <time>2019-11-30T12:30:59Z</time>
      </trkpt>
      <trkpt lat="46.72811" lon="5.95995">
        <ele>572.4</ele>
        <time>2019-11-30T12:31:08Z</time>
      </trkpt>
      <trkpt lat="46.72807" lon="5.95992">
        <ele>572.5</ele>
        <time>2019-11-30T12:31:11Z</time>
      </trkpt>
      <trkpt lat="46.72799" lon="5.95979">
        <ele>571.7</ele>
        <time>2019-11-30T12:31:35Z</time>
      </trkpt>
      <trkpt lat="46.72796" lon="5.95972">
        <ele>571.7</ele>
        <time>2019-11-30T12:31:37Z</time>
      </trkpt>
      <trkpt lat="46.72793" lon="5.95958">
        <ele>572</ele>
        <time>2019-11-30T12:31:48Z</time>
      </trkpt>
      <trkpt lat="46.72793" lon="5.95951">
        <ele>572.3</ele>
        <time>2019-11-30T12:31:52Z</time>
      </trkpt>
      <trkpt lat="46.72788" lon="5.95951">
        <ele>573</ele>
        <time>2019-11-30T12:32:01Z</time>
      </trkpt>
      <trkpt lat="46.72783" lon="5.95952">
        <ele>573.2</ele>
        <time>2019-11-30T12:32:05Z</time>
      </trkpt>
      <trkpt lat="46.72778" lon="5.95952">
        <ele>573.2</ele>
        <time>2019-11-30T12:32:09Z</time>
      </trkpt>
      <trkpt lat="46.72773" lon="5.95952">
        <ele>573</ele>
        <time>2019-11-30T12:32:14Z</time>
      </trkpt>
      <trkpt lat="46.72768" lon="5.9595">
        <ele>572.7</ele>
        <time>2019-11-30T12:32:19Z</time>
      </trkpt>
      <trkpt lat="46.72764" lon="5.95947">
        <ele>572.3</ele>
        <time>2019-11-30T12:32:24Z</time>
      </trkpt>
      <trkpt lat="46.72759" lon="5.95945">
        <ele>572.1</ele>
        <time>2019-11-30T12:32:29Z</time>
      </trkpt>
      <trkpt lat="46.72755" lon="5.95942">
        <ele>571.9</ele>
        <time>2019-11-30T12:32:33Z</time>
      </trkpt>
      <trkpt lat="46.72751" lon="5.95939">
        <ele>571.8</ele>
        <time>2019-11-30T12:32:37Z</time>
      </trkpt>
      <trkpt lat="46.72747" lon="5.95936">
        <ele>571.8</ele>
        <time>2019-11-30T12:32:41Z</time>
      </trkpt>
      <trkpt lat="46.72743" lon="5.95931">
        <ele>571.9</ele>
        <time>2019-11-30T12:32:45Z</time>
      </trkpt>
      <trkpt lat="46.7274" lon="5.95926">
        <ele>572.2</ele>
        <time>2019-11-30T12:32:49Z</time>
      </trkpt>
      <trkpt lat="46.72735" lon="5.95923">
        <ele>572.5</ele>
        <time>2019-11-30T12:32:54Z</time>
      </trkpt>
      <trkpt lat="46.7273" lon="5.9592">
        <ele>572.7</ele>
        <time>2019-11-30T12:32:59Z</time>
      </trkpt>
      <trkpt lat="46.72726" lon="5.95917">
        <ele>573.1</ele>
        <time>2019-11-30T12:33:04Z</time>
      </trkpt>
      <trkpt lat="46.72721" lon="5.95915">
        <ele>573.4</ele>
        <time>2019-11-30T12:33:08Z</time>
      </trkpt>
      <trkpt lat="46.72713" lon="5.9591">
        <ele>574.3</ele>
        <time>2019-11-30T12:33:23Z</time>
      </trkpt>
      <trkpt lat="46.72708" lon="5.95907">
        <ele>574.2</ele>
        <time>2019-11-30T12:33:28Z</time>
      </trkpt>
      <trkpt lat="46.72703" lon="5.95905">
        <ele>574.1</ele>
        <time>2019-11-30T12:33:32Z</time>
      </trkpt>
      <trkpt lat="46.72698" lon="5.95903">
        <ele>574</ele>
        <time>2019-11-30T12:33:37Z</time>
      </trkpt>
      <trkpt lat="46.72693" lon="5.95899">
        <ele>574</ele>
        <time>2019-11-30T12:33:41Z</time>
      </trkpt>
      <trkpt lat="46.72689" lon="5.95895">
        <ele>573.8</ele>
        <time>2019-11-30T12:33:46Z</time>
      </trkpt>
      <trkpt lat="46.72684" lon="5.95891">
        <ele>573.6</ele>
        <time>2019-11-30T12:33:51Z</time>
      </trkpt>
      <trkpt lat="46.7268" lon="5.95888">
        <ele>573.4</ele>
        <time>2019-11-30T12:33:56Z</time>
      </trkpt>
      <trkpt lat="46.72676" lon="5.95884">
        <ele>573.4</ele>
        <time>2019-11-30T12:34:01Z</time>
      </trkpt>
      <trkpt lat="46.72672" lon="5.95881">
        <ele>573.5</ele>
        <time>2019-11-30T12:34:04Z</time>
      </trkpt>
      <trkpt lat="46.72668" lon="5.95876">
        <ele>573.8</ele>
        <time>2019-11-30T12:34:07Z</time>
      </trkpt>
      <trkpt lat="46.72663" lon="5.95873">
        <ele>574.4</ele>
        <time>2019-11-30T12:34:12Z</time>
      </trkpt>
      <trkpt lat="46.72658" lon="5.95874">
        <ele>574.8</ele>
        <time>2019-11-30T12:34:16Z</time>
      </trkpt>
      <trkpt lat="46.72653" lon="5.95872">
        <ele>575.1</ele>
        <time>2019-11-30T12:34:20Z</time>
      </trkpt>
      <trkpt lat="46.72647" lon="5.95871">
        <ele>575.2</ele>
        <time>2019-11-30T12:34:24Z</time>
      </trkpt>
      <trkpt lat="46.72643" lon="5.95868">
        <ele>575.4</ele>
        <time>2019-11-30T12:34:29Z</time>
      </trkpt>
      <trkpt lat="46.72638" lon="5.95865">
        <ele>575.6</ele>
        <time>2019-11-30T12:34:33Z</time>
      </trkpt>
      <trkpt lat="46.72634" lon="5.95862">
        <ele>575.9</ele>
        <time>2019-11-30T12:34:38Z</time>
      </trkpt>
      <trkpt lat="46.72629" lon="5.9586">
        <ele>576.2</ele>
        <time>2019-11-30T12:34:43Z</time>
      </trkpt>
      <trkpt lat="46.72624" lon="5.95858">
        <ele>576.6</ele>
        <time>2019-11-30T12:34:49Z</time>
      </trkpt>
      <trkpt lat="46.7262" lon="5.95856">
        <ele>576.9</ele>
        <time>2019-11-30T12:34:53Z</time>
      </trkpt>
      <trkpt lat="46.72614" lon="5.95854">
        <ele>577.2</ele>
        <time>2019-11-30T12:34:58Z</time>
      </trkpt>
      <trkpt lat="46.7261" lon="5.95851">
        <ele>577.6</ele>
        <time>2019-11-30T12:35:01Z</time>
      </trkpt>
      <trkpt lat="46.72606" lon="5.95846">
        <ele>578.1</ele>
        <time>2019-11-30T12:35:05Z</time>
      </trkpt>
      <trkpt lat="46.72602" lon="5.95841">
        <ele>578.7</ele>
        <time>2019-11-30T12:35:11Z</time>
      </trkpt>
      <trkpt lat="46.72597" lon="5.95837">
        <ele>578.8</ele>
        <time>2019-11-30T12:35:16Z</time>
      </trkpt>
      <trkpt lat="46.72593" lon="5.95834">
        <ele>579</ele>
        <time>2019-11-30T12:35:19Z</time>
      </trkpt>
      <trkpt lat="46.72589" lon="5.95831">
        <ele>579.7</ele>
        <time>2019-11-30T12:35:25Z</time>
      </trkpt>
      <trkpt lat="46.72585" lon="5.95827">
        <ele>580.2</ele>
        <time>2019-11-30T12:35:30Z</time>
      </trkpt>
      <trkpt lat="46.7258" lon="5.95825">
        <ele>580.4</ele>
        <time>2019-11-30T12:35:34Z</time>
      </trkpt>
      <trkpt lat="46.72575" lon="5.95823">
        <ele>580.5</ele>
        <time>2019-11-30T12:35:38Z</time>
      </trkpt>
      <trkpt lat="46.72571" lon="5.95819">
        <ele>580.5</ele>
        <time>2019-11-30T12:35:43Z</time>
      </trkpt>
      <trkpt lat="46.72567" lon="5.95813">
        <ele>580.1</ele>
        <time>2019-11-30T12:35:50Z</time>
      </trkpt>
      <trkpt lat="46.72563" lon="5.95809">
        <ele>579.7</ele>
        <time>2019-11-30T12:35:55Z</time>
      </trkpt>
      <trkpt lat="46.72559" lon="5.95807">
        <ele>579.2</ele>
        <time>2019-11-30T12:35:59Z</time>
      </trkpt>
      <trkpt lat="46.72554" lon="5.95806">
        <ele>578.7</ele>
        <time>2019-11-30T12:36:03Z</time>
      </trkpt>
      <trkpt lat="46.72549" lon="5.95808">
        <ele>578.2</ele>
        <time>2019-11-30T12:36:07Z</time>
      </trkpt>
      <trkpt lat="46.72544" lon="5.95807">
        <ele>577.8</ele>
        <time>2019-11-30T12:36:11Z</time>
      </trkpt>
      <trkpt lat="46.72539" lon="5.95807">
        <ele>577.1</ele>
        <time>2019-11-30T12:36:18Z</time>
      </trkpt>
      <trkpt lat="46.72535" lon="5.95802">
        <ele>576.1</ele>
        <time>2019-11-30T12:36:27Z</time>
      </trkpt>
      <trkpt lat="46.72531" lon="5.95798">
        <ele>575.1</ele>
        <time>2019-11-30T12:36:34Z</time>
      </trkpt>
      <trkpt lat="46.72529" lon="5.95792">
        <ele>574.6</ele>
        <time>2019-11-30T12:36:43Z</time>
      </trkpt>
      <trkpt lat="46.72526" lon="5.95787">
        <ele>572.6</ele>
        <time>2019-11-30T12:36:59Z</time>
      </trkpt>
      <trkpt lat="46.72527" lon="5.95781">
        <ele>569.7</ele>
        <time>2019-11-30T12:37:23Z</time>
      </trkpt>
      <trkpt lat="46.7253" lon="5.95775">
        <ele>566.7</ele>
        <time>2019-11-30T12:37:34Z</time>
      </trkpt>
      <trkpt lat="46.72532" lon="5.95769">
        <ele>566.1</ele>
        <time>2019-11-30T12:37:46Z</time>
      </trkpt>
      <trkpt lat="46.72535" lon="5.95764">
        <ele>566.1</ele>
        <time>2019-11-30T12:37:53Z</time>
      </trkpt>
      <trkpt lat="46.72536" lon="5.95757">
        <ele>565.8</ele>
        <time>2019-11-30T12:37:58Z</time>
      </trkpt>
      <trkpt lat="46.72527" lon="5.95713">
        <ele>560.6</ele>
        <time>2019-11-30T12:40:25Z</time>
      </trkpt>
      <trkpt lat="46.72522" lon="5.95713">
        <ele>559.8</ele>
        <time>2019-11-30T12:40:30Z</time>
      </trkpt>
      <trkpt lat="46.72517" lon="5.95712">
        <ele>558.6</ele>
        <time>2019-11-30T12:40:36Z</time>
      </trkpt>
      <trkpt lat="46.72512" lon="5.9571">
        <ele>557.8</ele>
        <time>2019-11-30T12:40:39Z</time>
      </trkpt>
      <trkpt lat="46.72508" lon="5.95705">
        <ele>556.8</ele>
        <time>2019-11-30T12:40:43Z</time>
      </trkpt>
      <trkpt lat="46.72504" lon="5.95699">
        <ele>555.6</ele>
        <time>2019-11-30T12:40:47Z</time>
      </trkpt>
      <trkpt lat="46.72502" lon="5.95692">
        <ele>554.4</ele>
        <time>2019-11-30T12:40:51Z</time>
      </trkpt>
      <trkpt lat="46.725" lon="5.95685">
        <ele>553.1</ele>
        <time>2019-11-30T12:40:56Z</time>
      </trkpt>
      <trkpt lat="46.72499" lon="5.95679">
        <ele>552.4</ele>
        <time>2019-11-30T12:41:00Z</time>
      </trkpt>
      <trkpt lat="46.72497" lon="5.95672">
        <ele>551.8</ele>
        <time>2019-11-30T12:41:04Z</time>
      </trkpt>
      <trkpt lat="46.72494" lon="5.95665">
        <ele>551.3</ele>
        <time>2019-11-30T12:41:08Z</time>
      </trkpt>
      <trkpt lat="46.72491" lon="5.95659">
        <ele>549.5</ele>
        <time>2019-11-30T12:41:17Z</time>
      </trkpt>
      <trkpt lat="46.72487" lon="5.95654">
        <ele>547.9</ele>
        <time>2019-11-30T12:41:24Z</time>
      </trkpt>
      <trkpt lat="46.72483" lon="5.9565">
        <ele>546.5</ele>
        <time>2019-11-30T12:41:31Z</time>
      </trkpt>
      <trkpt lat="46.72479" lon="5.95639">
        <ele>535.4</ele>
        <time>2019-11-30T12:44:40Z</time>
      </trkpt>
      <trkpt lat="46.72475" lon="5.95633">
        <ele>534.2</ele>
        <time>2019-11-30T12:44:55Z</time>
      </trkpt>
      <trkpt lat="46.72471" lon="5.95628">
        <ele>534.4</ele>
        <time>2019-11-30T12:45:00Z</time>
      </trkpt>
      <trkpt lat="46.72467" lon="5.95624">
        <ele>534.6</ele>
        <time>2019-11-30T12:45:04Z</time>
      </trkpt>
      <trkpt lat="46.72462" lon="5.95622">
        <ele>534.2</ele>
        <time>2019-11-30T12:45:24Z</time>
      </trkpt>
      <trkpt lat="46.72457" lon="5.9562">
        <ele>533.8</ele>
        <time>2019-11-30T12:45:32Z</time>
      </trkpt>
      <trkpt lat="46.72453" lon="5.9562">
        <ele>533.4</ele>
        <time>2019-11-30T12:45:38Z</time>
      </trkpt>
      <trkpt lat="46.72449" lon="5.95626">
        <ele>533.3</ele>
        <time>2019-11-30T12:45:44Z</time>
      </trkpt>
      <trkpt lat="46.72446" lon="5.95631">
        <ele>533</ele>
        <time>2019-11-30T12:45:49Z</time>
      </trkpt>
      <trkpt lat="46.72442" lon="5.95636">
        <ele>532.8</ele>
        <time>2019-11-30T12:45:52Z</time>
      </trkpt>
      <trkpt lat="46.72438" lon="5.95641">
        <ele>532.6</ele>
        <time>2019-11-30T12:45:56Z</time>
      </trkpt>
      <trkpt lat="46.72435" lon="5.95647">
        <ele>532.3</ele>
        <time>2019-11-30T12:46:00Z</time>
      </trkpt>
      <trkpt lat="46.72432" lon="5.95653">
        <ele>531.8</ele>
        <time>2019-11-30T12:46:05Z</time>
      </trkpt>
      <trkpt lat="46.72429" lon="5.9566">
        <ele>531.1</ele>
        <time>2019-11-30T12:46:10Z</time>
      </trkpt>
      <trkpt lat="46.7243" lon="5.95677">
        <ele>529.6</ele>
        <time>2019-11-30T12:46:48Z</time>
      </trkpt>
      <trkpt lat="46.72431" lon="5.95684">
        <ele>530</ele>
        <time>2019-11-30T12:46:52Z</time>
      </trkpt>
      <trkpt lat="46.72428" lon="5.95684">
        <ele>530</ele>
        <time>2019-11-30T12:47:49Z</time>
      </trkpt>
      <trkpt lat="46.72424" lon="5.95681">
        <ele>529.6</ele>
        <time>2019-11-30T12:47:52Z</time>
      </trkpt>
      <trkpt lat="46.72419" lon="5.95681">
        <ele>529.1</ele>
        <time>2019-11-30T12:47:56Z</time>
      </trkpt>
      <trkpt lat="46.72414" lon="5.9568">
        <ele>528.7</ele>
        <time>2019-11-30T12:48:00Z</time>
      </trkpt>
      <trkpt lat="46.72409" lon="5.95678">
        <ele>528.3</ele>
        <time>2019-11-30T12:48:05Z</time>
      </trkpt>
      <trkpt lat="46.72404" lon="5.95678">
        <ele>527.9</ele>
        <time>2019-11-30T12:48:09Z</time>
      </trkpt>
      <trkpt lat="46.72399" lon="5.9568">
        <ele>527.6</ele>
        <time>2019-11-30T12:48:12Z</time>
      </trkpt>
      <trkpt lat="46.72393" lon="5.95681">
        <ele>527</ele>
        <time>2019-11-30T12:48:16Z</time>
      </trkpt>
      <trkpt lat="46.72388" lon="5.95682">
        <ele>526.8</ele>
        <time>2019-11-30T12:48:19Z</time>
      </trkpt>
      <trkpt lat="46.72384" lon="5.95683">
        <ele>526.8</ele>
        <time>2019-11-30T12:48:22Z</time>
      </trkpt>
      <trkpt lat="46.72379" lon="5.95685">
        <ele>527</ele>
        <time>2019-11-30T12:48:25Z</time>
      </trkpt>
      <trkpt lat="46.72374" lon="5.95683">
        <ele>527.2</ele>
        <time>2019-11-30T12:48:28Z</time>
      </trkpt>
      <trkpt lat="46.7237" lon="5.95681">
        <ele>527.5</ele>
        <time>2019-11-30T12:48:31Z</time>
      </trkpt>
      <trkpt lat="46.72364" lon="5.95678">
        <ele>527.9</ele>
        <time>2019-11-30T12:48:35Z</time>
      </trkpt>
      <trkpt lat="46.7236" lon="5.95676">
        <ele>528.4</ele>
        <time>2019-11-30T12:48:40Z</time>
      </trkpt>
      <trkpt lat="46.72355" lon="5.95671">
        <ele>528.7</ele>
        <time>2019-11-30T12:48:45Z</time>
      </trkpt>
      <trkpt lat="46.7235" lon="5.95667">
        <ele>528.9</ele>
        <time>2019-11-30T12:48:49Z</time>
      </trkpt>
      <trkpt lat="46.72347" lon="5.95662">
        <ele>528.8</ele>
        <time>2019-11-30T12:48:53Z</time>
      </trkpt>
      <trkpt lat="46.72343" lon="5.95656">
        <ele>528.5</ele>
        <time>2019-11-30T12:48:58Z</time>
      </trkpt>
      <trkpt lat="46.72339" lon="5.95653">
        <ele>527.8</ele>
        <time>2019-11-30T12:49:03Z</time>
      </trkpt>
      <trkpt lat="46.72335" lon="5.95648">
        <ele>526.8</ele>
        <time>2019-11-30T12:49:09Z</time>
      </trkpt>
      <trkpt lat="46.72331" lon="5.95643">
        <ele>526.3</ele>
        <time>2019-11-30T12:49:13Z</time>
      </trkpt>
      <trkpt lat="46.72328" lon="5.95638">
        <ele>525.7</ele>
        <time>2019-11-30T12:49:18Z</time>
      </trkpt>
      <trkpt lat="46.72325" lon="5.95632">
        <ele>525</ele>
        <time>2019-11-30T12:49:24Z</time>
      </trkpt>
      <trkpt lat="46.72321" lon="5.95627">
        <ele>524.4</ele>
        <time>2019-11-30T12:49:29Z</time>
      </trkpt>
      <trkpt lat="46.72318" lon="5.95622">
        <ele>523.7</ele>
        <time>2019-11-30T12:49:33Z</time>
      </trkpt>
      <trkpt lat="46.72314" lon="5.95617">
        <ele>522.7</ele>
        <time>2019-11-30T12:49:38Z</time>
      </trkpt>
      <trkpt lat="46.72309" lon="5.95615">
        <ele>522</ele>
        <time>2019-11-30T12:49:47Z</time>
      </trkpt>
      <trkpt lat="46.72305" lon="5.95611">
        <ele>522.5</ele>
        <time>2019-11-30T12:49:55Z</time>
      </trkpt>
      <trkpt lat="46.72301" lon="5.95607">
        <ele>525</ele>
        <time>2019-11-30T12:50:04Z</time>
      </trkpt>
      <trkpt lat="46.72298" lon="5.95601">
        <ele>528.1</ele>
        <time>2019-11-30T12:50:11Z</time>
      </trkpt>
      <trkpt lat="46.72293" lon="5.95594">
        <ele>530.4</ele>
        <time>2019-11-30T12:50:16Z</time>
      </trkpt>
      <trkpt lat="46.7229" lon="5.95589">
        <ele>531.8</ele>
        <time>2019-11-30T12:50:19Z</time>
      </trkpt>
      <trkpt lat="46.72286" lon="5.95584">
        <ele>534.7</ele>
        <time>2019-11-30T12:50:25Z</time>
      </trkpt>
      <trkpt lat="46.72283" lon="5.95579">
        <ele>536.3</ele>
        <time>2019-11-30T12:50:29Z</time>
      </trkpt>
      <trkpt lat="46.72283" lon="5.95586">
        <ele>539.5</ele>
        <time>2019-11-30T12:50:49Z</time>
      </trkpt>
      <trkpt lat="46.72286" lon="5.95592">
        <ele>540.2</ele>
        <time>2019-11-30T12:50:55Z</time>
      </trkpt>
      <trkpt lat="46.72289" lon="5.95598">
        <ele>541.4</ele>
        <time>2019-11-30T12:51:01Z</time>
      </trkpt>
      <trkpt lat="46.72291" lon="5.95604">
        <ele>542.6</ele>
        <time>2019-11-30T12:51:08Z</time>
      </trkpt>
      <trkpt lat="46.72295" lon="5.95609">
        <ele>543.3</ele>
        <time>2019-11-30T12:51:13Z</time>
      </trkpt>
      <trkpt lat="46.72297" lon="5.95615">
        <ele>544.5</ele>
        <time>2019-11-30T12:51:19Z</time>
      </trkpt>
      <trkpt lat="46.72299" lon="5.95621">
        <ele>546.7</ele>
        <time>2019-11-30T12:51:28Z</time>
      </trkpt>
      <trkpt lat="46.72303" lon="5.95625">
        <ele>548.2</ele>
        <time>2019-11-30T12:51:34Z</time>
      </trkpt>
      <trkpt lat="46.72305" lon="5.95633">
        <ele>549.6</ele>
        <time>2019-11-30T12:51:39Z</time>
      </trkpt>
      <trkpt lat="46.72307" lon="5.95639">
        <ele>551.2</ele>
        <time>2019-11-30T12:51:45Z</time>
      </trkpt>
      <trkpt lat="46.7231" lon="5.95645">
        <ele>552.8</ele>
        <time>2019-11-30T12:51:51Z</time>
      </trkpt>
      <trkpt lat="46.72312" lon="5.95651">
        <ele>553.6</ele>
        <time>2019-11-30T12:51:57Z</time>
      </trkpt>
      <trkpt lat="46.72315" lon="5.95658">
        <ele>553.8</ele>
        <time>2019-11-30T12:52:00Z</time>
      </trkpt>
      <trkpt lat="46.72317" lon="5.95663">
        <ele>554.3</ele>
        <time>2019-11-30T12:52:06Z</time>
      </trkpt>
      <trkpt lat="46.72325" lon="5.95673">
        <ele>556.8</ele>
        <time>2019-11-30T12:52:17Z</time>
      </trkpt>
      <trkpt lat="46.72327" lon="5.9568">
        <ele>557.5</ele>
        <time>2019-11-30T12:52:20Z</time>
      </trkpt>
      <trkpt lat="46.72329" lon="5.95696">
        <ele>563.4</ele>
        <time>2019-11-30T12:52:36Z</time>
      </trkpt>
      <trkpt lat="46.72329" lon="5.95703">
        <ele>563.7</ele>
        <time>2019-11-30T12:52:41Z</time>
      </trkpt>
      <trkpt lat="46.72331" lon="5.95709">
        <ele>563.6</ele>
        <time>2019-11-30T12:52:48Z</time>
      </trkpt>
      <trkpt lat="46.72336" lon="5.95712">
        <ele>563.5</ele>
        <time>2019-11-30T12:52:54Z</time>
      </trkpt>
      <trkpt lat="46.72339" lon="5.95708">
        <ele>565.5</ele>
        <time>2019-11-30T12:53:17Z</time>
      </trkpt>
      <trkpt lat="46.72332" lon="5.95707">
        <ele>574.3</ele>
        <time>2019-11-30T12:53:50Z</time>
      </trkpt>
      <trkpt lat="46.72331" lon="5.95703">
        <ele>573.1</ele>
        <time>2019-11-30T12:54:46Z</time>
      </trkpt>
      <trkpt lat="46.72336" lon="5.95702">
        <ele>571.9</ele>
        <time>2019-11-30T12:54:50Z</time>
      </trkpt>
      <trkpt lat="46.72342" lon="5.95705">
        <ele>570.4</ele>
        <time>2019-11-30T12:54:54Z</time>
      </trkpt>
      <trkpt lat="46.72346" lon="5.95708">
        <ele>568.7</ele>
        <time>2019-11-30T12:54:59Z</time>
      </trkpt>
      <trkpt lat="46.7235" lon="5.95713">
        <ele>565.9</ele>
        <time>2019-11-30T12:55:10Z</time>
      </trkpt>
      <trkpt lat="46.72355" lon="5.95718">
        <ele>565.4</ele>
        <time>2019-11-30T12:55:13Z</time>
      </trkpt>
      <trkpt lat="46.72359" lon="5.95722">
        <ele>564.8</ele>
        <time>2019-11-30T12:55:18Z</time>
      </trkpt>
      <trkpt lat="46.72361" lon="5.95731">
        <ele>564.8</ele>
        <time>2019-11-30T12:55:22Z</time>
      </trkpt>
      <trkpt lat="46.72363" lon="5.95737">
        <ele>566.6</ele>
        <time>2019-11-30T12:55:33Z</time>
      </trkpt>
      <trkpt lat="46.72368" lon="5.95743">
        <ele>567.3</ele>
        <time>2019-11-30T12:55:37Z</time>
      </trkpt>
      <trkpt lat="46.7237" lon="5.95749">
        <ele>567.9</ele>
        <time>2019-11-30T12:55:40Z</time>
      </trkpt>
      <trkpt lat="46.72374" lon="5.95755">
        <ele>568.3</ele>
        <time>2019-11-30T12:55:42Z</time>
      </trkpt>
      <trkpt lat="46.72377" lon="5.9576">
        <ele>569</ele>
        <time>2019-11-30T12:55:46Z</time>
      </trkpt>
      <trkpt lat="46.7238" lon="5.95765">
        <ele>569.7</ele>
        <time>2019-11-30T12:55:53Z</time>
      </trkpt>
      <trkpt lat="46.72383" lon="5.95771">
        <ele>570</ele>
        <time>2019-11-30T12:55:59Z</time>
      </trkpt>
      <trkpt lat="46.72387" lon="5.95777">
        <ele>570.2</ele>
        <time>2019-11-30T12:56:04Z</time>
      </trkpt>
      <trkpt lat="46.72391" lon="5.95781">
        <ele>570.3</ele>
        <time>2019-11-30T12:56:12Z</time>
      </trkpt>
      <trkpt lat="46.72395" lon="5.95783">
        <ele>570</ele>
        <time>2019-11-30T12:56:27Z</time>
      </trkpt>
      <trkpt lat="46.72412" lon="5.95801">
        <ele>558.5</ele>
        <time>2019-11-30T12:57:48Z</time>
      </trkpt>
      <trkpt lat="46.72417" lon="5.95802">
        <ele>558.1</ele>
        <time>2019-11-30T12:57:53Z</time>
      </trkpt>
      <trkpt lat="46.72422" lon="5.95803">
        <ele>557.9</ele>
        <time>2019-11-30T12:57:56Z</time>
      </trkpt>
      <trkpt lat="46.72426" lon="5.95807">
        <ele>557.5</ele>
        <time>2019-11-30T12:58:02Z</time>
      </trkpt>
      <trkpt lat="46.72425" lon="5.95813">
        <ele>548.8</ele>
        <time>2019-11-30T12:59:18Z</time>
      </trkpt>
      <trkpt lat="46.72427" lon="5.9582">
        <ele>547.8</ele>
        <time>2019-11-30T12:59:54Z</time>
      </trkpt>
      <trkpt lat="46.7243" lon="5.95824">
        <ele>547.5</ele>
        <time>2019-11-30T12:59:57Z</time>
      </trkpt>
      <trkpt lat="46.72433" lon="5.95831">
        <ele>546.8</ele>
        <time>2019-11-30T13:00:03Z</time>
      </trkpt>
      <trkpt lat="46.72438" lon="5.95832">
        <ele>545.5</ele>
        <time>2019-11-30T13:00:14Z</time>
      </trkpt>
      <trkpt lat="46.72444" lon="5.95836">
        <ele>550.7</ele>
        <time>2019-11-30T13:00:56Z</time>
      </trkpt>
      <trkpt lat="46.7245" lon="5.95826">
        <ele>569.3</ele>
        <time>2019-11-30T13:03:44Z</time>
      </trkpt>
      <trkpt lat="46.72449" lon="5.95819">
        <ele>561.4</ele>
        <time>2019-11-30T13:04:10Z</time>
      </trkpt>
      <trkpt lat="46.72446" lon="5.95814">
        <ele>559.8</ele>
        <time>2019-11-30T13:04:18Z</time>
      </trkpt>
      <trkpt lat="46.7244" lon="5.95811">
        <ele>559.4</ele>
        <time>2019-11-30T13:04:24Z</time>
      </trkpt>
      <trkpt lat="46.72436" lon="5.95807">
        <ele>559.2</ele>
        <time>2019-11-30T13:04:29Z</time>
      </trkpt>
      <trkpt lat="46.72432" lon="5.95803">
        <ele>559.1</ele>
        <time>2019-11-30T13:04:34Z</time>
      </trkpt>
      <trkpt lat="46.72427" lon="5.95803">
        <ele>558.9</ele>
        <time>2019-11-30T13:04:43Z</time>
      </trkpt>
      <trkpt lat="46.72423" lon="5.95799">
        <ele>558.9</ele>
        <time>2019-11-30T13:04:51Z</time>
      </trkpt>
      <trkpt lat="46.72419" lon="5.95797">
        <ele>559.2</ele>
        <time>2019-11-30T13:04:59Z</time>
      </trkpt>
      <trkpt lat="46.72415" lon="5.95795">
        <ele>559.7</ele>
        <time>2019-11-30T13:05:04Z</time>
      </trkpt>
      <trkpt lat="46.72411" lon="5.95791">
        <ele>560.3</ele>
        <time>2019-11-30T13:05:09Z</time>
      </trkpt>
      <trkpt lat="46.72406" lon="5.95787">
        <ele>560.6</ele>
        <time>2019-11-30T13:05:12Z</time>
      </trkpt>
      <trkpt lat="46.72402" lon="5.9579">
        <ele>562.8</ele>
        <time>2019-11-30T13:05:38Z</time>
      </trkpt>
      <trkpt lat="46.72402" lon="5.95797">
        <ele>563.2</ele>
        <time>2019-11-30T13:05:45Z</time>
      </trkpt>
      <trkpt lat="46.72405" lon="5.95803">
        <ele>563.6</ele>
        <time>2019-11-30T13:05:52Z</time>
      </trkpt>
      <trkpt lat="46.72405" lon="5.9581">
        <ele>563.8</ele>
        <time>2019-11-30T13:05:56Z</time>
      </trkpt>
      <trkpt lat="46.72406" lon="5.95817">
        <ele>564</ele>
        <time>2019-11-30T13:06:02Z</time>
      </trkpt>
      <trkpt lat="46.72409" lon="5.95823">
        <ele>564.1</ele>
        <time>2019-11-30T13:06:08Z</time>
      </trkpt>
      <trkpt lat="46.72412" lon="5.9583">
        <ele>564.5</ele>
        <time>2019-11-30T13:06:15Z</time>
      </trkpt>
      <trkpt lat="46.72413" lon="5.95837">
        <ele>565.2</ele>
        <time>2019-11-30T13:06:25Z</time>
      </trkpt>
      <trkpt lat="46.72413" lon="5.95844">
        <ele>565.4</ele>
        <time>2019-11-30T13:06:30Z</time>
      </trkpt>
      <trkpt lat="46.72414" lon="5.95852">
        <ele>565.7</ele>
        <time>2019-11-30T13:06:34Z</time>
      </trkpt>
      <trkpt lat="46.72417" lon="5.95858">
        <ele>566</ele>
        <time>2019-11-30T13:06:38Z</time>
      </trkpt>
      <trkpt lat="46.72419" lon="5.95865">
        <ele>566.4</ele>
        <time>2019-11-30T13:06:43Z</time>
      </trkpt>
      <trkpt lat="46.72421" lon="5.95871">
        <ele>567.1</ele>
        <time>2019-11-30T13:06:48Z</time>
      </trkpt>
      <trkpt lat="46.72423" lon="5.95878">
        <ele>567.9</ele>
        <time>2019-11-30T13:06:54Z</time>
      </trkpt>
      <trkpt lat="46.72427" lon="5.95885">
        <ele>568.3</ele>
        <time>2019-11-30T13:07:02Z</time>
      </trkpt>
      <trkpt lat="46.72429" lon="5.95891">
        <ele>568.4</ele>
        <time>2019-11-30T13:07:07Z</time>
      </trkpt>
      <trkpt lat="46.72429" lon="5.95898">
        <ele>569</ele>
        <time>2019-11-30T13:07:14Z</time>
      </trkpt>
      <trkpt lat="46.7243" lon="5.95904">
        <ele>570.5</ele>
        <time>2019-11-30T13:07:21Z</time>
      </trkpt>
      <trkpt lat="46.72429" lon="5.95916">
        <ele>571.4</ele>
        <time>2019-11-30T13:07:45Z</time>
      </trkpt>
      <trkpt lat="46.72428" lon="5.95923">
        <ele>570.7</ele>
        <time>2019-11-30T13:07:49Z</time>
      </trkpt>
      <trkpt lat="46.72428" lon="5.95931">
        <ele>569.9</ele>
        <time>2019-11-30T13:07:54Z</time>
      </trkpt>
      <trkpt lat="46.72429" lon="5.95937">
        <ele>569.6</ele>
        <time>2019-11-30T13:08:02Z</time>
      </trkpt>
      <trkpt lat="46.72433" lon="5.95941">
        <ele>569.7</ele>
        <time>2019-11-30T13:08:30Z</time>
      </trkpt>
      <trkpt lat="46.72433" lon="5.95948">
        <ele>569</ele>
        <time>2019-11-30T13:09:02Z</time>
      </trkpt>
      <trkpt lat="46.72433" lon="5.95948">
        <ele>581.8</ele>
        <time>2019-11-30T13:09:54Z</time>
      </trkpt>
      <trkpt lat="46.72429" lon="5.9594">
        <ele>577.8</ele>
        <time>2019-11-30T13:11:58Z</time>
      </trkpt>
      <trkpt lat="46.72428" lon="5.95934">
        <ele>577.2</ele>
        <time>2019-11-30T13:12:01Z</time>
      </trkpt>
      <trkpt lat="46.72426" lon="5.95925">
        <ele>576.1</ele>
        <time>2019-11-30T13:12:08Z</time>
      </trkpt>
      <trkpt lat="46.72423" lon="5.9592">
        <ele>575.2</ele>
        <time>2019-11-30T13:12:14Z</time>
      </trkpt>
      <trkpt lat="46.72421" lon="5.95914">
        <ele>574.2</ele>
        <time>2019-11-30T13:12:23Z</time>
      </trkpt>
      <trkpt lat="46.7242" lon="5.9593">
        <ele>572.9</ele>
        <time>2019-11-30T13:12:44Z</time>
      </trkpt>
      <trkpt lat="46.72418" lon="5.95936">
        <ele>572.8</ele>
        <time>2019-11-30T13:12:47Z</time>
      </trkpt>
      <trkpt lat="46.72414" lon="5.95941">
        <ele>572.6</ele>
        <time>2019-11-30T13:12:54Z</time>
      </trkpt>
      <trkpt lat="46.7241" lon="5.95943">
        <ele>572.7</ele>
        <time>2019-11-30T13:13:05Z</time>
      </trkpt>
      <trkpt lat="46.72403" lon="5.95949">
        <ele>572.1</ele>
        <time>2019-11-30T13:13:18Z</time>
      </trkpt>
      <trkpt lat="46.72402" lon="5.95955">
        <ele>572.3</ele>
        <time>2019-11-30T13:13:23Z</time>
      </trkpt>
      <trkpt lat="46.724" lon="5.95962">
        <ele>572.9</ele>
        <time>2019-11-30T13:13:28Z</time>
      </trkpt>
      <trkpt lat="46.72398" lon="5.95969">
        <ele>573.9</ele>
        <time>2019-11-30T13:13:33Z</time>
      </trkpt>
      <trkpt lat="46.72396" lon="5.95975">
        <ele>575.1</ele>
        <time>2019-11-30T13:13:39Z</time>
      </trkpt>
      <trkpt lat="46.72395" lon="5.95983">
        <ele>576.2</ele>
        <time>2019-11-30T13:13:43Z</time>
      </trkpt>
      <trkpt lat="46.72386" lon="5.96002">
        <ele>581.3</ele>
        <time>2019-11-30T13:13:57Z</time>
      </trkpt>
      <trkpt lat="46.72383" lon="5.96007">
        <ele>582</ele>
        <time>2019-11-30T13:14:00Z</time>
      </trkpt>
      <trkpt lat="46.72379" lon="5.9601">
        <ele>582.9</ele>
        <time>2019-11-30T13:14:04Z</time>
      </trkpt>
      <trkpt lat="46.72373" lon="5.96015">
        <ele>584.2</ele>
        <time>2019-11-30T13:14:10Z</time>
      </trkpt>
      <trkpt lat="46.7237" lon="5.9602">
        <ele>584.7</ele>
        <time>2019-11-30T13:14:12Z</time>
      </trkpt>
      <trkpt lat="46.72367" lon="5.96027">
        <ele>585.5</ele>
        <time>2019-11-30T13:14:15Z</time>
      </trkpt>
      <trkpt lat="46.72354" lon="5.96041">
        <ele>588.6</ele>
        <time>2019-11-30T13:14:35Z</time>
      </trkpt>
      <trkpt lat="46.72349" lon="5.96045">
        <ele>588.9</ele>
        <time>2019-11-30T13:14:38Z</time>
      </trkpt>
      <trkpt lat="46.72344" lon="5.96049">
        <ele>589.2</ele>
        <time>2019-11-30T13:14:42Z</time>
      </trkpt>
      <trkpt lat="46.72339" lon="5.9605">
        <ele>589.5</ele>
        <time>2019-11-30T13:14:45Z</time>
      </trkpt>
      <trkpt lat="46.72335" lon="5.9605">
        <ele>589.8</ele>
        <time>2019-11-30T13:14:49Z</time>
      </trkpt>
      <trkpt lat="46.72321" lon="5.9605">
        <ele>590.5</ele>
        <time>2019-11-30T13:14:58Z</time>
      </trkpt>
      <trkpt lat="46.72317" lon="5.96052">
        <ele>590.6</ele>
        <time>2019-11-30T13:15:02Z</time>
      </trkpt>
      <trkpt lat="46.72312" lon="5.96052">
        <ele>591</ele>
        <time>2019-11-30T13:15:09Z</time>
      </trkpt>
      <trkpt lat="46.72307" lon="5.9605">
        <ele>590.9</ele>
        <time>2019-11-30T13:15:15Z</time>
      </trkpt>
      <trkpt lat="46.72301" lon="5.96048">
        <ele>590.9</ele>
        <time>2019-11-30T13:15:20Z</time>
      </trkpt>
      <trkpt lat="46.72296" lon="5.96045">
        <ele>591</ele>
        <time>2019-11-30T13:15:24Z</time>
      </trkpt>
      <trkpt lat="46.72291" lon="5.96043">
        <ele>590.9</ele>
        <time>2019-11-30T13:15:27Z</time>
      </trkpt>
      <trkpt lat="46.72286" lon="5.9604">
        <ele>590.6</ele>
        <time>2019-11-30T13:15:31Z</time>
      </trkpt>
      <trkpt lat="46.72281" lon="5.96038">
        <ele>590.2</ele>
        <time>2019-11-30T13:15:35Z</time>
      </trkpt>
      <trkpt lat="46.72275" lon="5.96037">
        <ele>589.6</ele>
        <time>2019-11-30T13:15:40Z</time>
      </trkpt>
      <trkpt lat="46.7227" lon="5.96036">
        <ele>589.3</ele>
        <time>2019-11-30T13:15:45Z</time>
      </trkpt>
      <trkpt lat="46.72265" lon="5.96036">
        <ele>589.5</ele>
        <time>2019-11-30T13:15:50Z</time>
      </trkpt>
      <trkpt lat="46.7226" lon="5.96036">
        <ele>589.9</ele>
        <time>2019-11-30T13:15:58Z</time>
      </trkpt>
      <trkpt lat="46.72256" lon="5.96036">
        <ele>589.8</ele>
        <time>2019-11-30T13:16:03Z</time>
      </trkpt>
      <trkpt lat="46.72245" lon="5.96044">
        <ele>590.9</ele>
        <time>2019-11-30T13:16:28Z</time>
      </trkpt>
      <trkpt lat="46.72242" lon="5.96051">
        <ele>595.1</ele>
        <time>2019-11-30T13:16:41Z</time>
      </trkpt>
      <trkpt lat="46.72244" lon="5.96057">
        <ele>608</ele>
        <time>2019-11-30T13:17:09Z</time>
      </trkpt>
      <trkpt lat="46.72245" lon="5.96065">
        <ele>609.5</ele>
        <time>2019-11-30T13:17:14Z</time>
      </trkpt>
      <trkpt lat="46.72246" lon="5.96073">
        <ele>609.8</ele>
        <time>2019-11-30T13:17:16Z</time>
      </trkpt>
      <trkpt lat="46.72249" lon="5.96079">
        <ele>610.3</ele>
        <time>2019-11-30T13:17:21Z</time>
      </trkpt>
      <trkpt lat="46.72262" lon="5.9608">
        <ele>611</ele>
        <time>2019-11-30T13:17:34Z</time>
      </trkpt>
      <trkpt lat="46.7227" lon="5.96081">
        <ele>609</ele>
        <time>2019-11-30T13:17:44Z</time>
      </trkpt>
      <trkpt lat="46.72289" lon="5.96096">
        <ele>604</ele>
        <time>2019-11-30T13:18:03Z</time>
      </trkpt>
      <trkpt lat="46.72292" lon="5.96102">
        <ele>603.8</ele>
        <time>2019-11-30T13:18:05Z</time>
      </trkpt>
      <trkpt lat="46.72293" lon="5.96108">
        <ele>603.5</ele>
        <time>2019-11-30T13:18:09Z</time>
      </trkpt>
      <trkpt lat="46.72294" lon="5.96115">
        <ele>602.4</ele>
        <time>2019-11-30T13:18:18Z</time>
      </trkpt>
      <trkpt lat="46.72294" lon="5.96122">
        <ele>601.4</ele>
        <time>2019-11-30T13:18:23Z</time>
      </trkpt>
      <trkpt lat="46.72294" lon="5.96131">
        <ele>600.9</ele>
        <time>2019-11-30T13:18:26Z</time>
      </trkpt>
      <trkpt lat="46.72294" lon="5.96139">
        <ele>600.5</ele>
        <time>2019-11-30T13:18:29Z</time>
      </trkpt>
      <trkpt lat="46.72297" lon="5.96145">
        <ele>600.1</ele>
        <time>2019-11-30T13:18:33Z</time>
      </trkpt>
      <trkpt lat="46.723" lon="5.96151">
        <ele>600</ele>
        <time>2019-11-30T13:18:39Z</time>
      </trkpt>
      <trkpt lat="46.72302" lon="5.96158">
        <ele>600.2</ele>
        <time>2019-11-30T13:18:44Z</time>
      </trkpt>
      <trkpt lat="46.723" lon="5.96172">
        <ele>599.2</ele>
        <time>2019-11-30T13:19:18Z</time>
      </trkpt>
      <trkpt lat="46.72296" lon="5.96179">
        <ele>599.2</ele>
        <time>2019-11-30T13:19:24Z</time>
      </trkpt>
      <trkpt lat="46.7229" lon="5.96206">
        <ele>597.1</ele>
        <time>2019-11-30T13:19:44Z</time>
      </trkpt>
      <trkpt lat="46.72287" lon="5.96223">
        <ele>598.4</ele>
        <time>2019-11-30T13:19:57Z</time>
      </trkpt>
      <trkpt lat="46.72288" lon="5.9623">
        <ele>599</ele>
        <time>2019-11-30T13:20:06Z</time>
      </trkpt>
      <trkpt lat="46.72291" lon="5.96235">
        <ele>597</ele>
        <time>2019-11-30T13:20:17Z</time>
      </trkpt>
      <trkpt lat="46.72294" lon="5.9624">
        <ele>594.7</ele>
        <time>2019-11-30T13:20:28Z</time>
      </trkpt>
      <trkpt lat="46.72298" lon="5.96243">
        <ele>593.5</ele>
        <time>2019-11-30T13:20:39Z</time>
      </trkpt>
      <trkpt lat="46.72303" lon="5.96245">
        <ele>591.7</ele>
        <time>2019-11-30T13:20:48Z</time>
      </trkpt>
      <trkpt lat="46.7231" lon="5.96249">
        <ele>591</ele>
        <time>2019-11-30T13:20:51Z</time>
      </trkpt>
      <trkpt lat="46.72316" lon="5.96251">
        <ele>589.5</ele>
        <time>2019-11-30T13:20:59Z</time>
      </trkpt>
      <trkpt lat="46.7232" lon="5.96252">
        <ele>588.9</ele>
        <time>2019-11-30T13:21:02Z</time>
      </trkpt>
      <trkpt lat="46.72325" lon="5.96253">
        <ele>588</ele>
        <time>2019-11-30T13:21:06Z</time>
      </trkpt>
      <trkpt lat="46.72329" lon="5.96259">
        <ele>584.4</ele>
        <time>2019-11-30T13:21:19Z</time>
      </trkpt>
      <trkpt lat="46.72333" lon="5.9627">
        <ele>582.1</ele>
        <time>2019-11-30T13:21:43Z</time>
      </trkpt>
      <trkpt lat="46.72336" lon="5.96276">
        <ele>580.2</ele>
        <time>2019-11-30T13:21:50Z</time>
      </trkpt>
      <trkpt lat="46.7234" lon="5.9628">
        <ele>579</ele>
        <time>2019-11-30T13:21:54Z</time>
      </trkpt>
      <trkpt lat="46.72348" lon="5.96287">
        <ele>576.6</ele>
        <time>2019-11-30T13:22:19Z</time>
      </trkpt>
      <trkpt lat="46.72359" lon="5.96297">
        <ele>576.9</ele>
        <time>2019-11-30T13:22:48Z</time>
      </trkpt>
      <trkpt lat="46.72364" lon="5.96298">
        <ele>576.8</ele>
        <time>2019-11-30T13:22:51Z</time>
      </trkpt>
      <trkpt lat="46.72369" lon="5.96297">
        <ele>576.4</ele>
        <time>2019-11-30T13:22:59Z</time>
      </trkpt>
      <trkpt lat="46.72373" lon="5.96298">
        <ele>576.3</ele>
        <time>2019-11-30T13:23:02Z</time>
      </trkpt>
      <trkpt lat="46.72378" lon="5.963">
        <ele>576.3</ele>
        <time>2019-11-30T13:23:07Z</time>
      </trkpt>
      <trkpt lat="46.72382" lon="5.96305">
        <ele>576.6</ele>
        <time>2019-11-30T13:23:11Z</time>
      </trkpt>
      <trkpt lat="46.72385" lon="5.9631">
        <ele>576.8</ele>
        <time>2019-11-30T13:23:13Z</time>
      </trkpt>
      <trkpt lat="46.7239" lon="5.96316">
        <ele>577</ele>
        <time>2019-11-30T13:23:15Z</time>
      </trkpt>
      <trkpt lat="46.72394" lon="5.96321">
        <ele>577.4</ele>
        <time>2019-11-30T13:23:20Z</time>
      </trkpt>
      <trkpt lat="46.72398" lon="5.96325">
        <ele>577.6</ele>
        <time>2019-11-30T13:23:25Z</time>
      </trkpt>
      <trkpt lat="46.72402" lon="5.96327">
        <ele>578</ele>
        <time>2019-11-30T13:23:32Z</time>
      </trkpt>
      <trkpt lat="46.72414" lon="5.96332">
        <ele>580.4</ele>
        <time>2019-11-30T13:23:52Z</time>
      </trkpt>
      <trkpt lat="46.72419" lon="5.96334">
        <ele>580.8</ele>
        <time>2019-11-30T13:23:55Z</time>
      </trkpt>
      <trkpt lat="46.72428" lon="5.96339">
        <ele>582.5</ele>
        <time>2019-11-30T13:24:15Z</time>
      </trkpt>
      <trkpt lat="46.72433" lon="5.9634">
        <ele>582.7</ele>
        <time>2019-11-30T13:24:18Z</time>
      </trkpt>
      <trkpt lat="46.72437" lon="5.96341">
        <ele>582.8</ele>
        <time>2019-11-30T13:24:23Z</time>
      </trkpt>
      <trkpt lat="46.72442" lon="5.96345">
        <ele>582.7</ele>
        <time>2019-11-30T13:24:25Z</time>
      </trkpt>
      <trkpt lat="46.72453" lon="5.96354">
        <ele>581.5</ele>
        <time>2019-11-30T13:24:33Z</time>
      </trkpt>
      <trkpt lat="46.72461" lon="5.96356">
        <ele>580.3</ele>
        <time>2019-11-30T13:24:42Z</time>
      </trkpt>
      <trkpt lat="46.72489" lon="5.96363">
        <ele>598.7</ele>
        <time>2019-11-30T13:26:43Z</time>
      </trkpt>
      <trkpt lat="46.72493" lon="5.96367">
        <ele>597.2</ele>
        <time>2019-11-30T13:26:46Z</time>
      </trkpt>
      <trkpt lat="46.72497" lon="5.96372">
        <ele>595</ele>
        <time>2019-11-30T13:26:51Z</time>
      </trkpt>
      <trkpt lat="46.72504" lon="5.96375">
        <ele>593.4</ele>
        <time>2019-11-30T13:26:54Z</time>
      </trkpt>
      <trkpt lat="46.72511" lon="5.96378">
        <ele>591.4</ele>
        <time>2019-11-30T13:26:58Z</time>
      </trkpt>
      <trkpt lat="46.72516" lon="5.96381">
        <ele>589.8</ele>
        <time>2019-11-30T13:27:01Z</time>
      </trkpt>
      <trkpt lat="46.72521" lon="5.96385">
        <ele>588.3</ele>
        <time>2019-11-30T13:27:04Z</time>
      </trkpt>
      <trkpt lat="46.72526" lon="5.96387">
        <ele>585.3</ele>
        <time>2019-11-30T13:27:10Z</time>
      </trkpt>
      <trkpt lat="46.72531" lon="5.96388">
        <ele>581.7</ele>
        <time>2019-11-30T13:27:19Z</time>
      </trkpt>
      <trkpt lat="46.72534" lon="5.96383">
        <ele>580.5</ele>
        <time>2019-11-30T13:27:32Z</time>
      </trkpt>
      <trkpt lat="46.72536" lon="5.96373">
        <ele>584.7</ele>
        <time>2019-11-30T13:27:42Z</time>
      </trkpt>
      <trkpt lat="46.72541" lon="5.96359">
        <ele>589.3</ele>
        <time>2019-11-30T13:28:03Z</time>
      </trkpt>
      <trkpt lat="46.72533" lon="5.96362">
        <ele>587.5</ele>
        <time>2019-11-30T13:28:21Z</time>
      </trkpt>
      <trkpt lat="46.72528" lon="5.96367">
        <ele>586.7</ele>
        <time>2019-11-30T13:28:27Z</time>
      </trkpt>
      <trkpt lat="46.72524" lon="5.9637">
        <ele>586.4</ele>
        <time>2019-11-30T13:28:33Z</time>
      </trkpt>
      <trkpt lat="46.72519" lon="5.96371">
        <ele>586.8</ele>
        <time>2019-11-30T13:28:39Z</time>
      </trkpt>
      <trkpt lat="46.72515" lon="5.96368">
        <ele>587.3</ele>
        <time>2019-11-30T13:28:45Z</time>
      </trkpt>
      <trkpt lat="46.7251" lon="5.96367">
        <ele>587.8</ele>
        <time>2019-11-30T13:28:50Z</time>
      </trkpt>
      <trkpt lat="46.72505" lon="5.96366">
        <ele>588.2</ele>
        <time>2019-11-30T13:28:54Z</time>
      </trkpt>
      <trkpt lat="46.72493" lon="5.96364">
        <ele>590.7</ele>
        <time>2019-11-30T13:29:08Z</time>
      </trkpt>
      <trkpt lat="46.72471" lon="5.96342">
        <ele>598.2</ele>
        <time>2019-11-30T13:29:43Z</time>
      </trkpt>
      <trkpt lat="46.72459" lon="5.96336">
        <ele>600.4</ele>
        <time>2019-11-30T13:29:54Z</time>
      </trkpt>
      <trkpt lat="46.72454" lon="5.96331">
        <ele>601.1</ele>
        <time>2019-11-30T13:29:59Z</time>
      </trkpt>
      <trkpt lat="46.7245" lon="5.96327">
        <ele>601.4</ele>
        <time>2019-11-30T13:30:01Z</time>
      </trkpt>
      <trkpt lat="46.72445" lon="5.96325">
        <ele>601.8</ele>
        <time>2019-11-30T13:30:03Z</time>
      </trkpt>
      <trkpt lat="46.7244" lon="5.96322">
        <ele>602.7</ele>
        <time>2019-11-30T13:30:09Z</time>
      </trkpt>
      <trkpt lat="46.72436" lon="5.96321">
        <ele>603.4</ele>
        <time>2019-11-30T13:30:15Z</time>
      </trkpt>
      <trkpt lat="46.72431" lon="5.96318">
        <ele>603.6</ele>
        <time>2019-11-30T13:30:20Z</time>
      </trkpt>
      <trkpt lat="46.72427" lon="5.96314">
        <ele>603.8</ele>
        <time>2019-11-30T13:30:28Z</time>
      </trkpt>
      <trkpt lat="46.72425" lon="5.96308">
        <ele>603.7</ele>
        <time>2019-11-30T13:30:32Z</time>
      </trkpt>
      <trkpt lat="46.72421" lon="5.96303">
        <ele>603.5</ele>
        <time>2019-11-30T13:30:37Z</time>
      </trkpt>
      <trkpt lat="46.72418" lon="5.96298">
        <ele>603.4</ele>
        <time>2019-11-30T13:30:44Z</time>
      </trkpt>
      <trkpt lat="46.72415" lon="5.96292">
        <ele>603</ele>
        <time>2019-11-30T13:30:53Z</time>
      </trkpt>
      <trkpt lat="46.72412" lon="5.96285">
        <ele>602.3</ele>
        <time>2019-11-30T13:31:00Z</time>
      </trkpt>
      <trkpt lat="46.72411" lon="5.96279">
        <ele>602.1</ele>
        <time>2019-11-30T13:31:02Z</time>
      </trkpt>
      <trkpt lat="46.72409" lon="5.96272">
        <ele>601.8</ele>
        <time>2019-11-30T13:31:04Z</time>
      </trkpt>
      <trkpt lat="46.72406" lon="5.96267">
        <ele>601.4</ele>
        <time>2019-11-30T13:31:08Z</time>
      </trkpt>
      <trkpt lat="46.72397" lon="5.96259">
        <ele>599.7</ele>
        <time>2019-11-30T13:31:27Z</time>
      </trkpt>
      <trkpt lat="46.72393" lon="5.96254">
        <ele>599.2</ele>
        <time>2019-11-30T13:31:30Z</time>
      </trkpt>
      <trkpt lat="46.72389" lon="5.96248">
        <ele>598.6</ele>
        <time>2019-11-30T13:31:33Z</time>
      </trkpt>
      <trkpt lat="46.72386" lon="5.9624">
        <ele>597.9</ele>
        <time>2019-11-30T13:31:36Z</time>
      </trkpt>
      <trkpt lat="46.72383" lon="5.96233">
        <ele>596.8</ele>
        <time>2019-11-30T13:31:40Z</time>
      </trkpt>
      <trkpt lat="46.7238" lon="5.96226">
        <ele>595.8</ele>
        <time>2019-11-30T13:31:44Z</time>
      </trkpt>
      <trkpt lat="46.72377" lon="5.96219">
        <ele>594.6</ele>
        <time>2019-11-30T13:31:49Z</time>
      </trkpt>
      <trkpt lat="46.72373" lon="5.96212">
        <ele>593.6</ele>
        <time>2019-11-30T13:31:53Z</time>
      </trkpt>
      <trkpt lat="46.72371" lon="5.96205">
        <ele>592.4</ele>
        <time>2019-11-30T13:31:58Z</time>
      </trkpt>
      <trkpt lat="46.72369" lon="5.96199">
        <ele>591.2</ele>
        <time>2019-11-30T13:32:05Z</time>
      </trkpt>
      <trkpt lat="46.72369" lon="5.96191">
        <ele>590.6</ele>
        <time>2019-11-30T13:32:11Z</time>
      </trkpt>
      <trkpt lat="46.72369" lon="5.96185">
        <ele>590.5</ele>
        <time>2019-11-30T13:32:14Z</time>
      </trkpt>
      <trkpt lat="46.72371" lon="5.96177">
        <ele>590.2</ele>
        <time>2019-11-30T13:32:19Z</time>
      </trkpt>
      <trkpt lat="46.72374" lon="5.96172">
        <ele>590.2</ele>
        <time>2019-11-30T13:32:23Z</time>
      </trkpt>
      <trkpt lat="46.72387" lon="5.96139">
        <ele>588.1</ele>
        <time>2019-11-30T13:32:50Z</time>
      </trkpt>
      <trkpt lat="46.72389" lon="5.96133">
        <ele>587.7</ele>
        <time>2019-11-30T13:32:58Z</time>
      </trkpt>
      <trkpt lat="46.72389" lon="5.96126">
        <ele>587.9</ele>
        <time>2019-11-30T13:33:03Z</time>
      </trkpt>
      <trkpt lat="46.72391" lon="5.9612">
        <ele>588.4</ele>
        <time>2019-11-30T13:33:09Z</time>
      </trkpt>
      <trkpt lat="46.72393" lon="5.96114">
        <ele>588.7</ele>
        <time>2019-11-30T13:33:12Z</time>
      </trkpt>
      <trkpt lat="46.72396" lon="5.96108">
        <ele>589.4</ele>
        <time>2019-11-30T13:33:19Z</time>
      </trkpt>
      <trkpt lat="46.72399" lon="5.96102">
        <ele>590.1</ele>
        <time>2019-11-30T13:33:26Z</time>
      </trkpt>
      <trkpt lat="46.72401" lon="5.96095">
        <ele>590.3</ele>
        <time>2019-11-30T13:33:29Z</time>
      </trkpt>
      <trkpt lat="46.72403" lon="5.96088">
        <ele>590.5</ele>
        <time>2019-11-30T13:33:34Z</time>
      </trkpt>
      <trkpt lat="46.72403" lon="5.96082">
        <ele>590.8</ele>
        <time>2019-11-30T13:33:38Z</time>
      </trkpt>
      <trkpt lat="46.72407" lon="5.96076">
        <ele>591.2</ele>
        <time>2019-11-30T13:33:44Z</time>
      </trkpt>
      <trkpt lat="46.7241" lon="5.96072">
        <ele>591.5</ele>
        <time>2019-11-30T13:33:50Z</time>
      </trkpt>
      <trkpt lat="46.72415" lon="5.96068">
        <ele>591.8</ele>
        <time>2019-11-30T13:33:56Z</time>
      </trkpt>
      <trkpt lat="46.72418" lon="5.96064">
        <ele>591.8</ele>
        <time>2019-11-30T13:34:02Z</time>
      </trkpt>
      <trkpt lat="46.72418" lon="5.96057">
        <ele>592.6</ele>
        <time>2019-11-30T13:34:20Z</time>
      </trkpt>
      <trkpt lat="46.72424" lon="5.96052">
        <ele>593.3</ele>
        <time>2019-11-30T13:34:42Z</time>
      </trkpt>
      <trkpt lat="46.72429" lon="5.96052">
        <ele>593.4</ele>
        <time>2019-11-30T13:34:49Z</time>
      </trkpt>
      <trkpt lat="46.7243" lon="5.96058">
        <ele>593.2</ele>
        <time>2019-11-30T13:34:57Z</time>
      </trkpt>
      <trkpt lat="46.72434" lon="5.9606">
        <ele>593.1</ele>
        <time>2019-11-30T13:35:04Z</time>
      </trkpt>
      <trkpt lat="46.72439" lon="5.96064">
        <ele>593.1</ele>
        <time>2019-11-30T13:35:11Z</time>
      </trkpt>
      <trkpt lat="46.72443" lon="5.96067">
        <ele>593.2</ele>
        <time>2019-11-30T13:35:16Z</time>
      </trkpt>
      <trkpt lat="46.72448" lon="5.96072">
        <ele>593.2</ele>
        <time>2019-11-30T13:35:20Z</time>
      </trkpt>
      <trkpt lat="46.72452" lon="5.96076">
        <ele>593</ele>
        <time>2019-11-30T13:35:26Z</time>
      </trkpt>
      <trkpt lat="46.72457" lon="5.9608">
        <ele>592.8</ele>
        <time>2019-11-30T13:35:32Z</time>
      </trkpt>
      <trkpt lat="46.7246" lon="5.96084">
        <ele>592.4</ele>
        <time>2019-11-30T13:35:39Z</time>
      </trkpt>
      <trkpt lat="46.72465" lon="5.96089">
        <ele>592.2</ele>
        <time>2019-11-30T13:35:43Z</time>
      </trkpt>
      <trkpt lat="46.72469" lon="5.96094">
        <ele>592.1</ele>
        <time>2019-11-30T13:35:47Z</time>
      </trkpt>
      <trkpt lat="46.72473" lon="5.96097">
        <ele>592.1</ele>
        <time>2019-11-30T13:35:52Z</time>
      </trkpt>
      <trkpt lat="46.72476" lon="5.96102">
        <ele>592.4</ele>
        <time>2019-11-30T13:35:57Z</time>
      </trkpt>
      <trkpt lat="46.72481" lon="5.96105">
        <ele>592.6</ele>
        <time>2019-11-30T13:36:01Z</time>
      </trkpt>
      <trkpt lat="46.72485" lon="5.96109">
        <ele>593.2</ele>
        <time>2019-11-30T13:36:09Z</time>
      </trkpt>
      <trkpt lat="46.72489" lon="5.96113">
        <ele>594.1</ele>
        <time>2019-11-30T13:36:18Z</time>
      </trkpt>
      <trkpt lat="46.72494" lon="5.96114">
        <ele>594.7</ele>
        <time>2019-11-30T13:36:24Z</time>
      </trkpt>
      <trkpt lat="46.72499" lon="5.96114">
        <ele>595.2</ele>
        <time>2019-11-30T13:36:29Z</time>
      </trkpt>
      <trkpt lat="46.72503" lon="5.96114">
        <ele>596</ele>
        <time>2019-11-30T13:36:34Z</time>
      </trkpt>
      <trkpt lat="46.72509" lon="5.96113">
        <ele>596.8</ele>
        <time>2019-11-30T13:36:38Z</time>
      </trkpt>
      <trkpt lat="46.72512" lon="5.96113">
        <ele>603.4</ele>
        <time>2019-11-30T13:39:12Z</time>
      </trkpt>
      <trkpt lat="46.72517" lon="5.96114">
        <ele>604.3</ele>
        <time>2019-11-30T13:39:32Z</time>
      </trkpt>
      <trkpt lat="46.72523" lon="5.96113">
        <ele>606.1</ele>
        <time>2019-11-30T13:39:42Z</time>
      </trkpt>
      <trkpt lat="46.72527" lon="5.96114">
        <ele>606.8</ele>
        <time>2019-11-30T13:39:47Z</time>
      </trkpt>
      <trkpt lat="46.72533" lon="5.96115">
        <ele>607.9</ele>
        <time>2019-11-30T13:39:54Z</time>
      </trkpt>
      <trkpt lat="46.72538" lon="5.96115">
        <ele>608.5</ele>
        <time>2019-11-30T13:39:58Z</time>
      </trkpt>
      <trkpt lat="46.72542" lon="5.96116">
        <ele>608.9</ele>
        <time>2019-11-30T13:40:01Z</time>
      </trkpt>
      <trkpt lat="46.72547" lon="5.96118">
        <ele>609.3</ele>
        <time>2019-11-30T13:40:04Z</time>
      </trkpt>
      <trkpt lat="46.72552" lon="5.96117">
        <ele>609.8</ele>
        <time>2019-11-30T13:40:09Z</time>
      </trkpt>
      <trkpt lat="46.72556" lon="5.96117">
        <ele>610.8</ele>
        <time>2019-11-30T13:40:18Z</time>
      </trkpt>
      <trkpt lat="46.72562" lon="5.9612">
        <ele>611.5</ele>
        <time>2019-11-30T13:40:24Z</time>
      </trkpt>
      <trkpt lat="46.72567" lon="5.96122">
        <ele>612.1</ele>
        <time>2019-11-30T13:40:29Z</time>
      </trkpt>
      <trkpt lat="46.72571" lon="5.96127">
        <ele>612.8</ele>
        <time>2019-11-30T13:40:34Z</time>
      </trkpt>
      <trkpt lat="46.72574" lon="5.96132">
        <ele>613.5</ele>
        <time>2019-11-30T13:40:40Z</time>
      </trkpt>
      <trkpt lat="46.72577" lon="5.96137">
        <ele>614.3</ele>
        <time>2019-11-30T13:40:48Z</time>
      </trkpt>
      <trkpt lat="46.72582" lon="5.96136">
        <ele>616.4</ele>
        <time>2019-11-30T13:41:16Z</time>
      </trkpt>
      <trkpt lat="46.72586" lon="5.96141">
        <ele>620.3</ele>
        <time>2019-11-30T13:42:02Z</time>
      </trkpt>
      <trkpt lat="46.72587" lon="5.96147">
        <ele>621.9</ele>
        <time>2019-11-30T13:42:07Z</time>
      </trkpt>
      <trkpt lat="46.72592" lon="5.96152">
        <ele>623.2</ele>
        <time>2019-11-30T13:42:11Z</time>
      </trkpt>
      <trkpt lat="46.72596" lon="5.96156">
        <ele>624.4</ele>
        <time>2019-11-30T13:42:16Z</time>
      </trkpt>
      <trkpt lat="46.726" lon="5.96159">
        <ele>625</ele>
        <time>2019-11-30T13:42:19Z</time>
      </trkpt>
      <trkpt lat="46.72605" lon="5.96163">
        <ele>625.7</ele>
        <time>2019-11-30T13:42:25Z</time>
      </trkpt>
      <trkpt lat="46.72608" lon="5.96168">
        <ele>625.9</ele>
        <time>2019-11-30T13:42:29Z</time>
      </trkpt>
      <trkpt lat="46.72612" lon="5.96172">
        <ele>626.2</ele>
        <time>2019-11-30T13:42:34Z</time>
      </trkpt>
      <trkpt lat="46.72616" lon="5.96178">
        <ele>626.6</ele>
        <time>2019-11-30T13:42:41Z</time>
      </trkpt>
      <trkpt lat="46.72619" lon="5.96184">
        <ele>626.7</ele>
        <time>2019-11-30T13:42:45Z</time>
      </trkpt>
      <trkpt lat="46.72622" lon="5.96192">
        <ele>626.9</ele>
        <time>2019-11-30T13:42:50Z</time>
      </trkpt>
      <trkpt lat="46.72622" lon="5.96199">
        <ele>626.9</ele>
        <time>2019-11-30T13:42:57Z</time>
      </trkpt>
      <trkpt lat="46.72626" lon="5.96203">
        <ele>626.8</ele>
        <time>2019-11-30T13:43:04Z</time>
      </trkpt>
      <trkpt lat="46.7263" lon="5.96209">
        <ele>626.8</ele>
        <time>2019-11-30T13:43:09Z</time>
      </trkpt>
      <trkpt lat="46.72633" lon="5.96214">
        <ele>627.1</ele>
        <time>2019-11-30T13:43:17Z</time>
      </trkpt>
      <trkpt lat="46.72636" lon="5.9622">
        <ele>627.5</ele>
        <time>2019-11-30T13:43:23Z</time>
      </trkpt>
      <trkpt lat="46.72639" lon="5.96225">
        <ele>627.7</ele>
        <time>2019-11-30T13:43:28Z</time>
      </trkpt>
      <trkpt lat="46.72643" lon="5.96227">
        <ele>627.8</ele>
        <time>2019-11-30T13:43:33Z</time>
      </trkpt>
      <trkpt lat="46.72647" lon="5.96232">
        <ele>627.8</ele>
        <time>2019-11-30T13:43:38Z</time>
      </trkpt>
      <trkpt lat="46.72651" lon="5.96236">
        <ele>627.9</ele>
        <time>2019-11-30T13:43:41Z</time>
      </trkpt>
      <trkpt lat="46.72655" lon="5.9624">
        <ele>628</ele>
        <time>2019-11-30T13:43:45Z</time>
      </trkpt>
      <trkpt lat="46.72659" lon="5.96243">
        <ele>628</ele>
        <time>2019-11-30T13:43:50Z</time>
      </trkpt>
      <trkpt lat="46.72666" lon="5.96255">
        <ele>628.3</ele>
        <time>2019-11-30T13:44:01Z</time>
      </trkpt>
      <trkpt lat="46.72669" lon="5.96261">
        <ele>628.3</ele>
        <time>2019-11-30T13:44:06Z</time>
      </trkpt>
      <trkpt lat="46.72672" lon="5.96266">
        <ele>628.1</ele>
        <time>2019-11-30T13:44:12Z</time>
      </trkpt>
      <trkpt lat="46.72676" lon="5.96271">
        <ele>628.1</ele>
        <time>2019-11-30T13:44:18Z</time>
      </trkpt>
      <trkpt lat="46.72676" lon="5.96277">
        <ele>628.3</ele>
        <time>2019-11-30T13:44:28Z</time>
      </trkpt>
      <trkpt lat="46.72678" lon="5.96284">
        <ele>628.4</ele>
        <time>2019-11-30T13:44:33Z</time>
      </trkpt>
      <trkpt lat="46.72681" lon="5.9629">
        <ele>629</ele>
        <time>2019-11-30T13:44:39Z</time>
      </trkpt>
      <trkpt lat="46.72684" lon="5.96297">
        <ele>629.6</ele>
        <time>2019-11-30T13:44:44Z</time>
      </trkpt>
      <trkpt lat="46.72688" lon="5.96302">
        <ele>630.5</ele>
        <time>2019-11-30T13:44:51Z</time>
      </trkpt>
      <trkpt lat="46.7269" lon="5.96308">
        <ele>631</ele>
        <time>2019-11-30T13:44:56Z</time>
      </trkpt>
      <trkpt lat="46.72694" lon="5.96313">
        <ele>632</ele>
        <time>2019-11-30T13:45:02Z</time>
      </trkpt>
      <trkpt lat="46.72698" lon="5.96317">
        <ele>632.8</ele>
        <time>2019-11-30T13:45:08Z</time>
      </trkpt>
      <trkpt lat="46.72702" lon="5.96321">
        <ele>633.5</ele>
        <time>2019-11-30T13:45:14Z</time>
      </trkpt>
      <trkpt lat="46.72707" lon="5.96323">
        <ele>633.7</ele>
        <time>2019-11-30T13:45:17Z</time>
      </trkpt>
      <trkpt lat="46.72711" lon="5.96327">
        <ele>633.9</ele>
        <time>2019-11-30T13:45:21Z</time>
      </trkpt>
      <trkpt lat="46.72715" lon="5.96331">
        <ele>634</ele>
        <time>2019-11-30T13:45:25Z</time>
      </trkpt>
      <trkpt lat="46.72718" lon="5.96336">
        <ele>634.2</ele>
        <time>2019-11-30T13:45:29Z</time>
      </trkpt>
      <trkpt lat="46.72723" lon="5.9634">
        <ele>634.4</ele>
        <time>2019-11-30T13:45:34Z</time>
      </trkpt>
      <trkpt lat="46.72728" lon="5.96341">
        <ele>634.7</ele>
        <time>2019-11-30T13:45:40Z</time>
      </trkpt>
      <trkpt lat="46.72734" lon="5.96342">
        <ele>635</ele>
        <time>2019-11-30T13:45:45Z</time>
      </trkpt>
      <trkpt lat="46.72739" lon="5.96343">
        <ele>635.3</ele>
        <time>2019-11-30T13:45:49Z</time>
      </trkpt>
      <trkpt lat="46.72743" lon="5.96347">
        <ele>635.8</ele>
        <time>2019-11-30T13:45:55Z</time>
      </trkpt>
      <trkpt lat="46.72747" lon="5.96351">
        <ele>636.1</ele>
        <time>2019-11-30T13:45:59Z</time>
      </trkpt>
      <trkpt lat="46.72751" lon="5.96356">
        <ele>636.5</ele>
        <time>2019-11-30T13:46:06Z</time>
      </trkpt>
      <trkpt lat="46.72754" lon="5.96362">
        <ele>636.8</ele>
        <time>2019-11-30T13:46:13Z</time>
      </trkpt>
      <trkpt lat="46.72757" lon="5.96367">
        <ele>637.1</ele>
        <time>2019-11-30T13:46:17Z</time>
      </trkpt>
      <trkpt lat="46.72761" lon="5.96372">
        <ele>638</ele>
        <time>2019-11-30T13:46:27Z</time>
      </trkpt>
      <trkpt lat="46.72767" lon="5.96369">
        <ele>639.2</ele>
        <time>2019-11-30T13:46:38Z</time>
      </trkpt>
      <trkpt lat="46.72773" lon="5.96371">
        <ele>639.7</ele>
        <time>2019-11-30T13:46:41Z</time>
      </trkpt>
      <trkpt lat="46.72778" lon="5.96371">
        <ele>640.3</ele>
        <time>2019-11-30T13:46:44Z</time>
      </trkpt>
      <trkpt lat="46.72783" lon="5.96372">
        <ele>641</ele>
        <time>2019-11-30T13:46:48Z</time>
      </trkpt>
      <trkpt lat="46.72788" lon="5.96372">
        <ele>641.9</ele>
        <time>2019-11-30T13:46:52Z</time>
      </trkpt>
      <trkpt lat="46.72793" lon="5.9637">
        <ele>643.5</ele>
        <time>2019-11-30T13:47:01Z</time>
      </trkpt>
      <trkpt lat="46.72802" lon="5.96365">
        <ele>646</ele>
        <time>2019-11-30T13:47:35Z</time>
      </trkpt>
      <trkpt lat="46.72805" lon="5.9636">
        <ele>646.6</ele>
        <time>2019-11-30T13:47:41Z</time>
      </trkpt>
      <trkpt lat="46.72808" lon="5.96354">
        <ele>647.3</ele>
        <time>2019-11-30T13:47:46Z</time>
      </trkpt>
      <trkpt lat="46.7281" lon="5.96347">
        <ele>648.2</ele>
        <time>2019-11-30T13:47:53Z</time>
      </trkpt>
      <trkpt lat="46.7281" lon="5.9634">
        <ele>649</ele>
        <time>2019-11-30T13:47:59Z</time>
      </trkpt>
      <trkpt lat="46.7281" lon="5.96333">
        <ele>649.6</ele>
        <time>2019-11-30T13:48:05Z</time>
      </trkpt>
      <trkpt lat="46.72806" lon="5.96328">
        <ele>650.1</ele>
        <time>2019-11-30T13:48:11Z</time>
      </trkpt>
      <trkpt lat="46.72802" lon="5.96324">
        <ele>650.5</ele>
        <time>2019-11-30T13:48:16Z</time>
      </trkpt>
      <trkpt lat="46.72798" lon="5.96319">
        <ele>651.5</ele>
        <time>2019-11-30T13:48:24Z</time>
      </trkpt>
      <trkpt lat="46.72795" lon="5.96311">
        <ele>652.2</ele>
        <time>2019-11-30T13:48:31Z</time>
      </trkpt>
      <trkpt lat="46.72792" lon="5.96304">
        <ele>652.6</ele>
        <time>2019-11-30T13:48:35Z</time>
      </trkpt>
      <trkpt lat="46.7279" lon="5.96298">
        <ele>652.8</ele>
        <time>2019-11-30T13:48:40Z</time>
      </trkpt>
      <trkpt lat="46.72787" lon="5.96292">
        <ele>653</ele>
        <time>2019-11-30T13:48:47Z</time>
      </trkpt>
      <trkpt lat="46.72783" lon="5.96287">
        <ele>653.4</ele>
        <time>2019-11-30T13:48:53Z</time>
      </trkpt>
      <trkpt lat="46.7278" lon="5.96281">
        <ele>653.6</ele>
        <time>2019-11-30T13:48:57Z</time>
      </trkpt>
      <trkpt lat="46.72777" lon="5.96275">
        <ele>653.7</ele>
        <time>2019-11-30T13:49:02Z</time>
      </trkpt>
      <trkpt lat="46.72773" lon="5.9627">
        <ele>653.9</ele>
        <time>2019-11-30T13:49:06Z</time>
      </trkpt>
      <trkpt lat="46.7277" lon="5.96265">
        <ele>654.3</ele>
        <time>2019-11-30T13:49:10Z</time>
      </trkpt>
      <trkpt lat="46.72768" lon="5.96258">
        <ele>654.8</ele>
        <time>2019-11-30T13:49:16Z</time>
      </trkpt>
      <trkpt lat="46.72767" lon="5.96251">
        <ele>655.2</ele>
        <time>2019-11-30T13:49:20Z</time>
      </trkpt>
      <trkpt lat="46.72771" lon="5.96247">
        <ele>656.5</ele>
        <time>2019-11-30T13:49:50Z</time>
      </trkpt>
      <trkpt lat="46.72769" lon="5.96241">
        <ele>657.9</ele>
        <time>2019-11-30T13:50:22Z</time>
      </trkpt>
      <trkpt lat="46.72768" lon="5.96234">
        <ele>657.9</ele>
        <time>2019-11-30T13:50:32Z</time>
      </trkpt>
      <trkpt lat="46.72769" lon="5.96227">
        <ele>658.1</ele>
        <time>2019-11-30T13:50:38Z</time>
      </trkpt>
      <trkpt lat="46.72769" lon="5.9622">
        <ele>658.4</ele>
        <time>2019-11-30T13:50:44Z</time>
      </trkpt>
      <trkpt lat="46.7277" lon="5.96213">
        <ele>658.8</ele>
        <time>2019-11-30T13:50:50Z</time>
      </trkpt>
      <trkpt lat="46.72768" lon="5.96207">
        <ele>659.1</ele>
        <time>2019-11-30T13:50:55Z</time>
      </trkpt>
      <trkpt lat="46.72767" lon="5.962">
        <ele>659.5</ele>
        <time>2019-11-30T13:50:59Z</time>
      </trkpt>
      <trkpt lat="46.72766" lon="5.96192">
        <ele>660.1</ele>
        <time>2019-11-30T13:51:04Z</time>
      </trkpt>
      <trkpt lat="46.72765" lon="5.96186">
        <ele>660.7</ele>
        <time>2019-11-30T13:51:09Z</time>
      </trkpt>
      <trkpt lat="46.72764" lon="5.96178">
        <ele>661.3</ele>
        <time>2019-11-30T13:51:15Z</time>
      </trkpt>
      <trkpt lat="46.72765" lon="5.96172">
        <ele>662</ele>
        <time>2019-11-30T13:51:21Z</time>
      </trkpt>
      <trkpt lat="46.72764" lon="5.96165">
        <ele>663.1</ele>
        <time>2019-11-30T13:51:29Z</time>
      </trkpt>
      <trkpt lat="46.72764" lon="5.96157">
        <ele>664</ele>
        <time>2019-11-30T13:51:35Z</time>
      </trkpt>
      <trkpt lat="46.72764" lon="5.96149">
        <ele>664.7</ele>
        <time>2019-11-30T13:51:41Z</time>
      </trkpt>
      <trkpt lat="46.72766" lon="5.96142">
        <ele>665.3</ele>
        <time>2019-11-30T13:51:47Z</time>
      </trkpt>
      <trkpt lat="46.72767" lon="5.96136">
        <ele>665.8</ele>
        <time>2019-11-30T13:51:52Z</time>
      </trkpt>
      <trkpt lat="46.72763" lon="5.96132">
        <ele>667.1</ele>
        <time>2019-11-30T13:52:13Z</time>
      </trkpt>
      <trkpt lat="46.72768" lon="5.96133">
        <ele>669.6</ele>
        <time>2019-11-30T13:52:30Z</time>
      </trkpt>
      <trkpt lat="46.72773" lon="5.96136">
        <ele>670.1</ele>
        <time>2019-11-30T13:52:36Z</time>
      </trkpt>
      <trkpt lat="46.72778" lon="5.96139">
        <ele>670.3</ele>
        <time>2019-11-30T13:52:40Z</time>
      </trkpt>
      <trkpt lat="46.72781" lon="5.96142">
        <ele>670.4</ele>
        <time>2019-11-30T13:52:44Z</time>
      </trkpt>
      <trkpt lat="46.72786" lon="5.96147">
        <ele>670.4</ele>
        <time>2019-11-30T13:52:50Z</time>
      </trkpt>
      <trkpt lat="46.7279" lon="5.96151">
        <ele>670.4</ele>
        <time>2019-11-30T13:52:55Z</time>
      </trkpt>
      <trkpt lat="46.72794" lon="5.96155">
        <ele>670.5</ele>
        <time>2019-11-30T13:52:59Z</time>
      </trkpt>
      <trkpt lat="46.72798" lon="5.9616">
        <ele>670.7</ele>
        <time>2019-11-30T13:53:03Z</time>
      </trkpt>
      <trkpt lat="46.72801" lon="5.96165">
        <ele>671</ele>
        <time>2019-11-30T13:53:08Z</time>
      </trkpt>
      <trkpt lat="46.72806" lon="5.9617">
        <ele>671.4</ele>
        <time>2019-11-30T13:53:13Z</time>
      </trkpt>
      <trkpt lat="46.72809" lon="5.96174">
        <ele>671.7</ele>
        <time>2019-11-30T13:53:18Z</time>
      </trkpt>
      <trkpt lat="46.72813" lon="5.96179">
        <ele>672</ele>
        <time>2019-11-30T13:53:23Z</time>
      </trkpt>
      <trkpt lat="46.72818" lon="5.96184">
        <ele>672.3</ele>
        <time>2019-11-30T13:53:28Z</time>
      </trkpt>
      <trkpt lat="46.72822" lon="5.96187">
        <ele>672.6</ele>
        <time>2019-11-30T13:53:32Z</time>
      </trkpt>
      <trkpt lat="46.72826" lon="5.9619">
        <ele>673</ele>
        <time>2019-11-30T13:53:37Z</time>
      </trkpt>
      <trkpt lat="46.72831" lon="5.96192">
        <ele>673.6</ele>
        <time>2019-11-30T13:53:43Z</time>
      </trkpt>
      <trkpt lat="46.72836" lon="5.96197">
        <ele>674.1</ele>
        <time>2019-11-30T13:53:49Z</time>
      </trkpt>
      <trkpt lat="46.7284" lon="5.96201">
        <ele>674.6</ele>
        <time>2019-11-30T13:53:54Z</time>
      </trkpt>
      <trkpt lat="46.72844" lon="5.96204">
        <ele>675.1</ele>
        <time>2019-11-30T13:53:59Z</time>
      </trkpt>
      <trkpt lat="46.72848" lon="5.96208">
        <ele>675.8</ele>
        <time>2019-11-30T13:54:04Z</time>
      </trkpt>
      <trkpt lat="46.72853" lon="5.96214">
        <ele>676.6</ele>
        <time>2019-11-30T13:54:10Z</time>
      </trkpt>
      <trkpt lat="46.72856" lon="5.96219">
        <ele>677.1</ele>
        <time>2019-11-30T13:54:16Z</time>
      </trkpt>
      <trkpt lat="46.72859" lon="5.96224">
        <ele>677.7</ele>
        <time>2019-11-30T13:54:23Z</time>
      </trkpt>
      <trkpt lat="46.72862" lon="5.96229">
        <ele>678.1</ele>
        <time>2019-11-30T13:54:28Z</time>
      </trkpt>
      <trkpt lat="46.72866" lon="5.96233">
        <ele>678.4</ele>
        <time>2019-11-30T13:54:33Z</time>
      </trkpt>
      <trkpt lat="46.7287" lon="5.96239">
        <ele>678.6</ele>
        <time>2019-11-30T13:54:37Z</time>
      </trkpt>
      <trkpt lat="46.72874" lon="5.96243">
        <ele>678.9</ele>
        <time>2019-11-30T13:54:43Z</time>
      </trkpt>
      <trkpt lat="46.72877" lon="5.96248">
        <ele>679.3</ele>
        <time>2019-11-30T13:54:47Z</time>
      </trkpt>
      <trkpt lat="46.72879" lon="5.96254">
        <ele>679.9</ele>
        <time>2019-11-30T13:54:53Z</time>
      </trkpt>
      <trkpt lat="46.72883" lon="5.96259">
        <ele>680.4</ele>
        <time>2019-11-30T13:54:59Z</time>
      </trkpt>
      <trkpt lat="46.72886" lon="5.96264">
        <ele>680.6</ele>
        <time>2019-11-30T13:55:02Z</time>
      </trkpt>
      <trkpt lat="46.72889" lon="5.9627">
        <ele>681.2</ele>
        <time>2019-11-30T13:55:08Z</time>
      </trkpt>
      <trkpt lat="46.72893" lon="5.96276">
        <ele>681.5</ele>
        <time>2019-11-30T13:55:12Z</time>
      </trkpt>
      <trkpt lat="46.72896" lon="5.96282">
        <ele>682</ele>
        <time>2019-11-30T13:55:17Z</time>
      </trkpt>
      <trkpt lat="46.72899" lon="5.96286">
        <ele>682.3</ele>
        <time>2019-11-30T13:55:21Z</time>
      </trkpt>
      <trkpt lat="46.72902" lon="5.96292">
        <ele>682.9</ele>
        <time>2019-11-30T13:55:28Z</time>
      </trkpt>
      <trkpt lat="46.72906" lon="5.96297">
        <ele>683.2</ele>
        <time>2019-11-30T13:55:32Z</time>
      </trkpt>
      <trkpt lat="46.72909" lon="5.96302">
        <ele>683.5</ele>
        <time>2019-11-30T13:55:36Z</time>
      </trkpt>
      <trkpt lat="46.72912" lon="5.96307">
        <ele>684</ele>
        <time>2019-11-30T13:55:41Z</time>
      </trkpt>
      <trkpt lat="46.72915" lon="5.96312">
        <ele>684.6</ele>
        <time>2019-11-30T13:55:46Z</time>
      </trkpt>
      <trkpt lat="46.72919" lon="5.96316">
        <ele>685.1</ele>
        <time>2019-11-30T13:55:50Z</time>
      </trkpt>
      <trkpt lat="46.72923" lon="5.96319">
        <ele>685.7</ele>
        <time>2019-11-30T13:55:56Z</time>
      </trkpt>
      <trkpt lat="46.72928" lon="5.96321">
        <ele>685.9</ele>
        <time>2019-11-30T13:56:04Z</time>
      </trkpt>
      <trkpt lat="46.72934" lon="5.96323">
        <ele>686.1</ele>
        <time>2019-11-30T13:56:10Z</time>
      </trkpt>
      <trkpt lat="46.72938" lon="5.96326">
        <ele>686.3</ele>
        <time>2019-11-30T13:56:16Z</time>
      </trkpt>
      <trkpt lat="46.72943" lon="5.96329">
        <ele>686.4</ele>
        <time>2019-11-30T13:56:20Z</time>
      </trkpt>
      <trkpt lat="46.72947" lon="5.96331">
        <ele>686.6</ele>
        <time>2019-11-30T13:56:24Z</time>
      </trkpt>
      <trkpt lat="46.72952" lon="5.96333">
        <ele>686.9</ele>
        <time>2019-11-30T13:56:29Z</time>
      </trkpt>
      <trkpt lat="46.72956" lon="5.96337">
        <ele>687.3</ele>
        <time>2019-11-30T13:56:33Z</time>
      </trkpt>
      <trkpt lat="46.72961" lon="5.9634">
        <ele>688.3</ele>
        <time>2019-11-30T13:56:47Z</time>
      </trkpt>
      <trkpt lat="46.72965" lon="5.96343">
        <ele>688.3</ele>
        <time>2019-11-30T13:57:40Z</time>
      </trkpt>
      <trkpt lat="46.72969" lon="5.96344">
        <ele>688.7</ele>
        <time>2019-11-30T13:57:49Z</time>
      </trkpt>
      <trkpt lat="46.72974" lon="5.96347">
        <ele>689.3</ele>
        <time>2019-11-30T13:57:55Z</time>
      </trkpt>
      <trkpt lat="46.72979" lon="5.9635">
        <ele>689.8</ele>
        <time>2019-11-30T13:58:00Z</time>
      </trkpt>
      <trkpt lat="46.72984" lon="5.96351">
        <ele>690.5</ele>
        <time>2019-11-30T13:58:06Z</time>
      </trkpt>
      <trkpt lat="46.72988" lon="5.96355">
        <ele>691.2</ele>
        <time>2019-11-30T13:58:11Z</time>
      </trkpt>
      <trkpt lat="46.72992" lon="5.96358">
        <ele>691.9</ele>
        <time>2019-11-30T13:58:16Z</time>
      </trkpt>
      <trkpt lat="46.72996" lon="5.96361">
        <ele>692.6</ele>
        <time>2019-11-30T13:58:22Z</time>
      </trkpt>
      <trkpt lat="46.73001" lon="5.96364">
        <ele>693</ele>
        <time>2019-11-30T13:58:26Z</time>
      </trkpt>
      <trkpt lat="46.73005" lon="5.96366">
        <ele>693.4</ele>
        <time>2019-11-30T13:58:33Z</time>
      </trkpt>
      <trkpt lat="46.73014" lon="5.96368">
        <ele>694.5</ele>
        <time>2019-11-30T13:58:59Z</time>
      </trkpt>
      <trkpt lat="46.73021" lon="5.96369">
        <ele>698.6</ele>
        <time>2019-11-30T14:00:49Z</time>
      </trkpt>
      <trkpt lat="46.73025" lon="5.96372">
        <ele>698.6</ele>
        <time>2019-11-30T14:00:56Z</time>
      </trkpt>
      <trkpt lat="46.73029" lon="5.96375">
        <ele>698.7</ele>
        <time>2019-11-30T14:01:02Z</time>
      </trkpt>
      <trkpt lat="46.73034" lon="5.96378">
        <ele>698.8</ele>
        <time>2019-11-30T14:01:09Z</time>
      </trkpt>
      <trkpt lat="46.73038" lon="5.96381">
        <ele>698.9</ele>
        <time>2019-11-30T14:01:15Z</time>
      </trkpt>
      <trkpt lat="46.73043" lon="5.96383">
        <ele>699.2</ele>
        <time>2019-11-30T14:01:21Z</time>
      </trkpt>
      <trkpt lat="46.73047" lon="5.96385">
        <ele>699.5</ele>
        <time>2019-11-30T14:01:26Z</time>
      </trkpt>
      <trkpt lat="46.73052" lon="5.96386">
        <ele>699.8</ele>
        <time>2019-11-30T14:01:32Z</time>
      </trkpt>
      <trkpt lat="46.73057" lon="5.96388">
        <ele>700.3</ele>
        <time>2019-11-30T14:01:38Z</time>
      </trkpt>
      <trkpt lat="46.73062" lon="5.96388">
        <ele>700.9</ele>
        <time>2019-11-30T14:01:43Z</time>
      </trkpt>
      <trkpt lat="46.73067" lon="5.9639">
        <ele>701.5</ele>
        <time>2019-11-30T14:01:49Z</time>
      </trkpt>
      <trkpt lat="46.73072" lon="5.96393">
        <ele>701.7</ele>
        <time>2019-11-30T14:01:54Z</time>
      </trkpt>
      <trkpt lat="46.73077" lon="5.96395">
        <ele>702.1</ele>
        <time>2019-11-30T14:02:02Z</time>
      </trkpt>
      <trkpt lat="46.73081" lon="5.96398">
        <ele>702.6</ele>
        <time>2019-11-30T14:02:08Z</time>
      </trkpt>
      <trkpt lat="46.73086" lon="5.96399">
        <ele>702.9</ele>
        <time>2019-11-30T14:02:13Z</time>
      </trkpt>
      <trkpt lat="46.73091" lon="5.96398">
        <ele>703.2</ele>
        <time>2019-11-30T14:02:19Z</time>
      </trkpt>
      <trkpt lat="46.73096" lon="5.96398">
        <ele>703.6</ele>
        <time>2019-11-30T14:02:25Z</time>
      </trkpt>
      <trkpt lat="46.73099" lon="5.96392">
        <ele>704.6</ele>
        <time>2019-11-30T14:02:34Z</time>
      </trkpt>
      <trkpt lat="46.73102" lon="5.96387">
        <ele>705.3</ele>
        <time>2019-11-30T14:02:40Z</time>
      </trkpt>
      <trkpt lat="46.73106" lon="5.96382">
        <ele>706.1</ele>
        <time>2019-11-30T14:02:46Z</time>
      </trkpt>
      <trkpt lat="46.73111" lon="5.96382">
        <ele>706.6</ele>
        <time>2019-11-30T14:02:50Z</time>
      </trkpt>
      <trkpt lat="46.73115" lon="5.96383">
        <ele>707</ele>
        <time>2019-11-30T14:02:55Z</time>
      </trkpt>
      <trkpt lat="46.7312" lon="5.96385">
        <ele>707.2</ele>
        <time>2019-11-30T14:02:59Z</time>
      </trkpt>
      <trkpt lat="46.73124" lon="5.96383">
        <ele>707.8</ele>
        <time>2019-11-30T14:03:10Z</time>
      </trkpt>
      <trkpt lat="46.73129" lon="5.96382">
        <ele>707.8</ele>
        <time>2019-11-30T14:03:21Z</time>
      </trkpt>
      <trkpt lat="46.73132" lon="5.96388">
        <ele>707.8</ele>
        <time>2019-11-30T14:03:28Z</time>
      </trkpt>
      <trkpt lat="46.73136" lon="5.96393">
        <ele>707.7</ele>
        <time>2019-11-30T14:03:32Z</time>
      </trkpt>
      <trkpt lat="46.7314" lon="5.96397">
        <ele>707.7</ele>
        <time>2019-11-30T14:03:38Z</time>
      </trkpt>
      <trkpt lat="46.73145" lon="5.96395">
        <ele>707.8</ele>
        <time>2019-11-30T14:03:45Z</time>
      </trkpt>
      <trkpt lat="46.7315" lon="5.96397">
        <ele>708</ele>
        <time>2019-11-30T14:03:50Z</time>
      </trkpt>
      <trkpt lat="46.73155" lon="5.96397">
        <ele>708.2</ele>
        <time>2019-11-30T14:03:55Z</time>
      </trkpt>
      <trkpt lat="46.7316" lon="5.96396">
        <ele>708.3</ele>
        <time>2019-11-30T14:04:00Z</time>
      </trkpt>
      <trkpt lat="46.73165" lon="5.96395">
        <ele>708.3</ele>
        <time>2019-11-30T14:04:06Z</time>
      </trkpt>
      <trkpt lat="46.7317" lon="5.96396">
        <ele>708.2</ele>
        <time>2019-11-30T14:04:14Z</time>
      </trkpt>
      <trkpt lat="46.73175" lon="5.96399">
        <ele>708.1</ele>
        <time>2019-11-30T14:04:19Z</time>
      </trkpt>
      <trkpt lat="46.7318" lon="5.964">
        <ele>708</ele>
        <time>2019-11-30T14:04:25Z</time>
      </trkpt>
      <trkpt lat="46.73184" lon="5.96401">
        <ele>707.7</ele>
        <time>2019-11-30T14:04:33Z</time>
      </trkpt>
      <trkpt lat="46.73189" lon="5.96402">
        <ele>707.2</ele>
        <time>2019-11-30T14:04:45Z</time>
      </trkpt>
      <trkpt lat="46.73193" lon="5.96402">
        <ele>706.1</ele>
        <time>2019-11-30T14:04:52Z</time>
      </trkpt>
      <trkpt lat="46.73205" lon="5.96414">
        <ele>701.2</ele>
        <time>2019-11-30T14:05:11Z</time>
      </trkpt>
      <trkpt lat="46.73206" lon="5.96422">
        <ele>699.7</ele>
        <time>2019-11-30T14:05:17Z</time>
      </trkpt>
      <trkpt lat="46.73207" lon="5.9643">
        <ele>698.7</ele>
        <time>2019-11-30T14:05:21Z</time>
      </trkpt>
      <trkpt lat="46.73208" lon="5.96437">
        <ele>697.6</ele>
        <time>2019-11-30T14:05:27Z</time>
      </trkpt>
      <trkpt lat="46.73211" lon="5.96444">
        <ele>697.1</ele>
        <time>2019-11-30T14:05:32Z</time>
      </trkpt>
      <trkpt lat="46.73214" lon="5.96449">
        <ele>697</ele>
        <time>2019-11-30T14:05:36Z</time>
      </trkpt>
      <trkpt lat="46.73218" lon="5.96452">
        <ele>697.4</ele>
        <time>2019-11-30T14:05:44Z</time>
      </trkpt>
      <trkpt lat="46.73223" lon="5.96455">
        <ele>697.7</ele>
        <time>2019-11-30T14:05:55Z</time>
      </trkpt>
      <trkpt lat="46.73226" lon="5.96459">
        <ele>697.6</ele>
        <time>2019-11-30T14:06:03Z</time>
      </trkpt>
      <trkpt lat="46.7323" lon="5.96463">
        <ele>696.7</ele>
        <time>2019-11-30T14:06:12Z</time>
      </trkpt>
      <trkpt lat="46.73236" lon="5.96466">
        <ele>696.1</ele>
        <time>2019-11-30T14:06:16Z</time>
      </trkpt>
      <trkpt lat="46.7324" lon="5.96468">
        <ele>695</ele>
        <time>2019-11-30T14:06:23Z</time>
      </trkpt>
      <trkpt lat="46.73245" lon="5.96471">
        <ele>693.9</ele>
        <time>2019-11-30T14:06:30Z</time>
      </trkpt>
      <trkpt lat="46.73249" lon="5.96473">
        <ele>693.2</ele>
        <time>2019-11-30T14:06:35Z</time>
      </trkpt>
      <trkpt lat="46.73253" lon="5.96478">
        <ele>691.8</ele>
        <time>2019-11-30T14:06:45Z</time>
      </trkpt>
      <trkpt lat="46.73258" lon="5.96477">
        <ele>690.8</ele>
        <time>2019-11-30T14:06:53Z</time>
      </trkpt>
      <trkpt lat="46.73263" lon="5.96478">
        <ele>689.4</ele>
        <time>2019-11-30T14:07:02Z</time>
      </trkpt>
      <trkpt lat="46.73267" lon="5.96482">
        <ele>688.6</ele>
        <time>2019-11-30T14:07:07Z</time>
      </trkpt>
      <trkpt lat="46.73269" lon="5.96488">
        <ele>687.9</ele>
        <time>2019-11-30T14:07:13Z</time>
      </trkpt>
      <trkpt lat="46.73273" lon="5.96493">
        <ele>687.2</ele>
        <time>2019-11-30T14:07:17Z</time>
      </trkpt>
      <trkpt lat="46.73277" lon="5.96497">
        <ele>685.8</ele>
        <time>2019-11-30T14:07:25Z</time>
      </trkpt>
      <trkpt lat="46.73281" lon="5.96501">
        <ele>684.8</ele>
        <time>2019-11-30T14:07:31Z</time>
      </trkpt>
      <trkpt lat="46.73285" lon="5.96506">
        <ele>683.7</ele>
        <time>2019-11-30T14:07:38Z</time>
      </trkpt>
      <trkpt lat="46.73289" lon="5.96509">
        <ele>683.3</ele>
        <time>2019-11-30T14:07:41Z</time>
      </trkpt>
      <trkpt lat="46.73294" lon="5.96513">
        <ele>682.8</ele>
        <time>2019-11-30T14:07:45Z</time>
      </trkpt>
      <trkpt lat="46.73303" lon="5.96523">
        <ele>680.9</ele>
        <time>2019-11-30T14:08:01Z</time>
      </trkpt>
      <trkpt lat="46.73312" lon="5.96531">
        <ele>680.2</ele>
        <time>2019-11-30T14:08:16Z</time>
      </trkpt>
      <trkpt lat="46.73316" lon="5.96534">
        <ele>679.8</ele>
        <time>2019-11-30T14:08:21Z</time>
      </trkpt>
      <trkpt lat="46.73323" lon="5.96542">
        <ele>679.7</ele>
        <time>2019-11-30T14:08:32Z</time>
      </trkpt>
      <trkpt lat="46.73331" lon="5.96545">
        <ele>683.7</ele>
        <time>2019-11-30T14:08:45Z</time>
      </trkpt>
      <trkpt lat="46.73335" lon="5.96546">
        <ele>684.9</ele>
        <time>2019-11-30T14:08:49Z</time>
      </trkpt>
      <trkpt lat="46.73341" lon="5.96547">
        <ele>685.9</ele>
        <time>2019-11-30T14:08:52Z</time>
      </trkpt>
      <trkpt lat="46.73346" lon="5.96549">
        <ele>687.2</ele>
        <time>2019-11-30T14:08:56Z</time>
      </trkpt>
      <trkpt lat="46.7335" lon="5.96552">
        <ele>688.7</ele>
        <time>2019-11-30T14:09:01Z</time>
      </trkpt>
      <trkpt lat="46.73354" lon="5.96557">
        <ele>690.2</ele>
        <time>2019-11-30T14:09:07Z</time>
      </trkpt>
      <trkpt lat="46.73358" lon="5.96562">
        <ele>691.3</ele>
        <time>2019-11-30T14:09:12Z</time>
      </trkpt>
      <trkpt lat="46.73362" lon="5.96565">
        <ele>693</ele>
        <time>2019-11-30T14:09:19Z</time>
      </trkpt>
      <trkpt lat="46.73373" lon="5.96572">
        <ele>696.4</ele>
        <time>2019-11-30T14:09:35Z</time>
      </trkpt>
      <trkpt lat="46.73377" lon="5.96573">
        <ele>697.9</ele>
        <time>2019-11-30T14:09:44Z</time>
      </trkpt>
      <trkpt lat="46.73382" lon="5.96574">
        <ele>699.3</ele>
        <time>2019-11-30T14:09:50Z</time>
      </trkpt>
      <trkpt lat="46.73387" lon="5.96577">
        <ele>700.9</ele>
        <time>2019-11-30T14:09:56Z</time>
      </trkpt>
      <trkpt lat="46.73391" lon="5.9658">
        <ele>702.6</ele>
        <time>2019-11-30T14:10:04Z</time>
      </trkpt>
      <trkpt lat="46.73395" lon="5.96585">
        <ele>703.5</ele>
        <time>2019-11-30T14:10:10Z</time>
      </trkpt>
      <trkpt lat="46.73398" lon="5.9659">
        <ele>704.4</ele>
        <time>2019-11-30T14:10:18Z</time>
      </trkpt>
      <trkpt lat="46.73403" lon="5.96601">
        <ele>705.3</ele>
        <time>2019-11-30T14:10:33Z</time>
      </trkpt>
      <trkpt lat="46.73417" lon="5.96615">
        <ele>707.4</ele>
        <time>2019-11-30T14:10:57Z</time>
      </trkpt>
      <trkpt lat="46.73421" lon="5.9662">
        <ele>707.7</ele>
        <time>2019-11-30T14:11:08Z</time>
      </trkpt>
      <trkpt lat="46.73427" lon="5.9663">
        <ele>709</ele>
        <time>2019-11-30T14:11:25Z</time>
      </trkpt>
      <trkpt lat="46.73432" lon="5.96632">
        <ele>709.4</ele>
        <time>2019-11-30T14:11:32Z</time>
      </trkpt>
      <trkpt lat="46.7344" lon="5.96636">
        <ele>710.7</ele>
        <time>2019-11-30T14:11:53Z</time>
      </trkpt>
      <trkpt lat="46.73444" lon="5.96639">
        <ele>711.5</ele>
        <time>2019-11-30T14:11:59Z</time>
      </trkpt>
      <trkpt lat="46.73449" lon="5.96642">
        <ele>713.2</ele>
        <time>2019-11-30T14:12:08Z</time>
      </trkpt>
      <trkpt lat="46.73453" lon="5.96645">
        <ele>714.5</ele>
        <time>2019-11-30T14:12:13Z</time>
      </trkpt>
      <trkpt lat="46.73458" lon="5.96647">
        <ele>716.7</ele>
        <time>2019-11-30T14:12:20Z</time>
      </trkpt>
      <trkpt lat="46.73462" lon="5.96651">
        <ele>719</ele>
        <time>2019-11-30T14:12:27Z</time>
      </trkpt>
      <trkpt lat="46.73466" lon="5.96655">
        <ele>720.2</ele>
        <time>2019-11-30T14:12:30Z</time>
      </trkpt>
      <trkpt lat="46.7347" lon="5.96659">
        <ele>721.4</ele>
        <time>2019-11-30T14:12:33Z</time>
      </trkpt>
      <trkpt lat="46.73474" lon="5.96662">
        <ele>722.7</ele>
        <time>2019-11-30T14:12:36Z</time>
      </trkpt>
      <trkpt lat="46.73479" lon="5.96663">
        <ele>724.2</ele>
        <time>2019-11-30T14:12:40Z</time>
      </trkpt>
      <trkpt lat="46.73484" lon="5.96663">
        <ele>725.7</ele>
        <time>2019-11-30T14:12:44Z</time>
      </trkpt>
      <trkpt lat="46.7349" lon="5.96664">
        <ele>727</ele>
        <time>2019-11-30T14:12:48Z</time>
      </trkpt>
      <trkpt lat="46.73495" lon="5.96667">
        <ele>728.2</ele>
        <time>2019-11-30T14:12:52Z</time>
      </trkpt>
      <trkpt lat="46.73499" lon="5.9667">
        <ele>729.3</ele>
        <time>2019-11-30T14:12:56Z</time>
      </trkpt>
      <trkpt lat="46.73504" lon="5.96669">
        <ele>730.2</ele>
        <time>2019-11-30T14:13:00Z</time>
      </trkpt>
      <trkpt lat="46.73509" lon="5.96671">
        <ele>731.3</ele>
        <time>2019-11-30T14:13:06Z</time>
      </trkpt>
      <trkpt lat="46.73513" lon="5.96674">
        <ele>732.1</ele>
        <time>2019-11-30T14:13:11Z</time>
      </trkpt>
      <trkpt lat="46.73525" lon="5.96685">
        <ele>741</ele>
        <time>2019-11-30T14:15:34Z</time>
      </trkpt>
      <trkpt lat="46.7353" lon="5.96681">
        <ele>745.8</ele>
        <time>2019-11-30T14:17:36Z</time>
      </trkpt>
      <trkpt lat="46.73531" lon="5.96675">
        <ele>748.2</ele>
        <time>2019-11-30T14:17:49Z</time>
      </trkpt>
      <trkpt lat="46.73527" lon="5.9667">
        <ele>751.6</ele>
        <time>2019-11-30T14:18:04Z</time>
      </trkpt>
      <trkpt lat="46.73522" lon="5.96668">
        <ele>752.9</ele>
        <time>2019-11-30T14:18:10Z</time>
      </trkpt>
      <trkpt lat="46.73518" lon="5.96664">
        <ele>754.5</ele>
        <time>2019-11-30T14:18:20Z</time>
      </trkpt>
      <trkpt lat="46.73514" lon="5.96659">
        <ele>755.7</ele>
        <time>2019-11-30T14:18:30Z</time>
      </trkpt>
      <trkpt lat="46.73511" lon="5.96655">
        <ele>756</ele>
        <time>2019-11-30T14:18:35Z</time>
      </trkpt>
      <trkpt lat="46.73507" lon="5.96651">
        <ele>756.1</ele>
        <time>2019-11-30T14:18:39Z</time>
      </trkpt>
      <trkpt lat="46.73503" lon="5.96647">
        <ele>756.2</ele>
        <time>2019-11-30T14:18:44Z</time>
      </trkpt>
      <trkpt lat="46.73498" lon="5.96646">
        <ele>756.1</ele>
        <time>2019-11-30T14:18:48Z</time>
      </trkpt>
      <trkpt lat="46.73494" lon="5.96643">
        <ele>755.8</ele>
        <time>2019-11-30T14:18:55Z</time>
      </trkpt>
      <trkpt lat="46.73489" lon="5.9664">
        <ele>755.4</ele>
        <time>2019-11-30T14:19:02Z</time>
      </trkpt>
      <trkpt lat="46.73485" lon="5.96638">
        <ele>755.1</ele>
        <time>2019-11-30T14:19:09Z</time>
      </trkpt>
      <trkpt lat="46.7348" lon="5.96637">
        <ele>755.4</ele>
        <time>2019-11-30T14:19:25Z</time>
      </trkpt>
      <trkpt lat="46.73477" lon="5.96631">
        <ele>754.8</ele>
        <time>2019-11-30T14:19:36Z</time>
      </trkpt>
      <trkpt lat="46.73472" lon="5.96633">
        <ele>754.5</ele>
        <time>2019-11-30T14:19:43Z</time>
      </trkpt>
      <trkpt lat="46.73467" lon="5.96632">
        <ele>754.1</ele>
        <time>2019-11-30T14:19:50Z</time>
      </trkpt>
      <trkpt lat="46.73462" lon="5.96629">
        <ele>753.4</ele>
        <time>2019-11-30T14:19:56Z</time>
      </trkpt>
      <trkpt lat="46.73458" lon="5.96626">
        <ele>751.7</ele>
        <time>2019-11-30T14:20:07Z</time>
      </trkpt>
      <trkpt lat="46.73454" lon="5.96621">
        <ele>750.8</ele>
        <time>2019-11-30T14:20:12Z</time>
      </trkpt>
      <trkpt lat="46.7345" lon="5.96616">
        <ele>750.1</ele>
        <time>2019-11-30T14:20:16Z</time>
      </trkpt>
      <trkpt lat="46.73446" lon="5.96612">
        <ele>749.5</ele>
        <time>2019-11-30T14:20:20Z</time>
      </trkpt>
      <trkpt lat="46.73443" lon="5.96607">
        <ele>748.7</ele>
        <time>2019-11-30T14:20:26Z</time>
      </trkpt>
      <trkpt lat="46.73438" lon="5.96604">
        <ele>747.7</ele>
        <time>2019-11-30T14:20:32Z</time>
      </trkpt>
      <trkpt lat="46.73433" lon="5.96602">
        <ele>746.7</ele>
        <time>2019-11-30T14:20:37Z</time>
      </trkpt>
      <trkpt lat="46.73429" lon="5.96598">
        <ele>745.5</ele>
        <time>2019-11-30T14:20:44Z</time>
      </trkpt>
      <trkpt lat="46.73425" lon="5.96594">
        <ele>744.5</ele>
        <time>2019-11-30T14:20:52Z</time>
      </trkpt>
      <trkpt lat="46.73421" lon="5.9659">
        <ele>744</ele>
        <time>2019-11-30T14:21:00Z</time>
      </trkpt>
      <trkpt lat="46.73418" lon="5.96586">
        <ele>742.9</ele>
        <time>2019-11-30T14:21:09Z</time>
      </trkpt>
      <trkpt lat="46.73414" lon="5.96581">
        <ele>741.8</ele>
        <time>2019-11-30T14:21:15Z</time>
      </trkpt>
      <trkpt lat="46.7341" lon="5.96578">
        <ele>740.8</ele>
        <time>2019-11-30T14:21:21Z</time>
      </trkpt>
      <trkpt lat="46.73405" lon="5.96576">
        <ele>739.7</ele>
        <time>2019-11-30T14:21:27Z</time>
      </trkpt>
      <trkpt lat="46.73401" lon="5.96572">
        <ele>738.2</ele>
        <time>2019-11-30T14:21:35Z</time>
      </trkpt>
      <trkpt lat="46.73398" lon="5.96567">
        <ele>736.5</ele>
        <time>2019-11-30T14:21:53Z</time>
      </trkpt>
      <trkpt lat="46.73393" lon="5.9657">
        <ele>737.5</ele>
        <time>2019-11-30T14:22:22Z</time>
      </trkpt>
      <trkpt lat="46.73389" lon="5.96565">
        <ele>737.3</ele>
        <time>2019-11-30T14:22:27Z</time>
      </trkpt>
      <trkpt lat="46.73386" lon="5.96561">
        <ele>736.7</ele>
        <time>2019-11-30T14:22:33Z</time>
      </trkpt>
      <trkpt lat="46.73381" lon="5.96557">
        <ele>735.5</ele>
        <time>2019-11-30T14:22:39Z</time>
      </trkpt>
      <trkpt lat="46.73378" lon="5.96553">
        <ele>734.2</ele>
        <time>2019-11-30T14:22:44Z</time>
      </trkpt>
      <trkpt lat="46.73374" lon="5.96549">
        <ele>732.7</ele>
        <time>2019-11-30T14:22:49Z</time>
      </trkpt>
      <trkpt lat="46.73369" lon="5.96545">
        <ele>731.3</ele>
        <time>2019-11-30T14:22:55Z</time>
      </trkpt>
      <trkpt lat="46.73364" lon="5.96542">
        <ele>730.4</ele>
        <time>2019-11-30T14:22:59Z</time>
      </trkpt>
      <trkpt lat="46.73359" lon="5.9654">
        <ele>729.1</ele>
        <time>2019-11-30T14:23:04Z</time>
      </trkpt>
      <trkpt lat="46.73355" lon="5.96537">
        <ele>727.6</ele>
        <time>2019-11-30T14:23:10Z</time>
      </trkpt>
      <trkpt lat="46.7335" lon="5.96535">
        <ele>726.4</ele>
        <time>2019-11-30T14:23:15Z</time>
      </trkpt>
      <trkpt lat="46.73346" lon="5.96531">
        <ele>725.3</ele>
        <time>2019-11-30T14:23:19Z</time>
      </trkpt>
      <trkpt lat="46.73342" lon="5.96526">
        <ele>723.9</ele>
        <time>2019-11-30T14:23:24Z</time>
      </trkpt>
      <trkpt lat="46.73338" lon="5.96522">
        <ele>722.8</ele>
        <time>2019-11-30T14:23:28Z</time>
      </trkpt>
      <trkpt lat="46.73334" lon="5.96519">
        <ele>721.8</ele>
        <time>2019-11-30T14:23:32Z</time>
      </trkpt>
      <trkpt lat="46.7333" lon="5.96515">
        <ele>720.6</ele>
        <time>2019-11-30T14:23:37Z</time>
      </trkpt>
      <trkpt lat="46.73325" lon="5.96512">
        <ele>719.1</ele>
        <time>2019-11-30T14:23:43Z</time>
      </trkpt>
      <trkpt lat="46.73321" lon="5.9651">
        <ele>718.5</ele>
        <time>2019-11-30T14:23:46Z</time>
      </trkpt>
      <trkpt lat="46.73316" lon="5.96506">
        <ele>717.5</ele>
        <time>2019-11-30T14:23:51Z</time>
      </trkpt>
      <trkpt lat="46.73312" lon="5.96501">
        <ele>716.6</ele>
        <time>2019-11-30T14:23:56Z</time>
      </trkpt>
      <trkpt lat="46.73308" lon="5.96498">
        <ele>715.3</ele>
        <time>2019-11-30T14:24:03Z</time>
      </trkpt>
      <trkpt lat="46.73303" lon="5.96494">
        <ele>713.9</ele>
        <time>2019-11-30T14:24:10Z</time>
      </trkpt>
      <trkpt lat="46.73299" lon="5.96492">
        <ele>712.9</ele>
        <time>2019-11-30T14:24:15Z</time>
      </trkpt>
      <trkpt lat="46.73294" lon="5.96488">
        <ele>711.9</ele>
        <time>2019-11-30T14:24:20Z</time>
      </trkpt>
      <trkpt lat="46.73291" lon="5.96483">
        <ele>711.3</ele>
        <time>2019-11-30T14:24:24Z</time>
      </trkpt>
      <trkpt lat="46.73287" lon="5.96481">
        <ele>710.3</ele>
        <time>2019-11-30T14:24:30Z</time>
      </trkpt>
      <trkpt lat="46.73282" lon="5.96479">
        <ele>709.5</ele>
        <time>2019-11-30T14:24:35Z</time>
      </trkpt>
      <trkpt lat="46.73278" lon="5.96477">
        <ele>709</ele>
        <time>2019-11-30T14:24:39Z</time>
      </trkpt>
      <trkpt lat="46.73273" lon="5.96475">
        <ele>708.3</ele>
        <time>2019-11-30T14:24:45Z</time>
      </trkpt>
      <trkpt lat="46.73269" lon="5.96474">
        <ele>707.5</ele>
        <time>2019-11-30T14:24:51Z</time>
      </trkpt>
      <trkpt lat="46.73264" lon="5.96473">
        <ele>706.8</ele>
        <time>2019-11-30T14:24:58Z</time>
      </trkpt>
      <trkpt lat="46.73258" lon="5.96471">
        <ele>706.2</ele>
        <time>2019-11-30T14:25:03Z</time>
      </trkpt>
      <trkpt lat="46.73253" lon="5.96469">
        <ele>705.9</ele>
        <time>2019-11-30T14:25:07Z</time>
      </trkpt>
      <trkpt lat="46.73249" lon="5.96468">
        <ele>705.7</ele>
        <time>2019-11-30T14:25:10Z</time>
      </trkpt>
      <trkpt lat="46.73244" lon="5.96465">
        <ele>705.1</ele>
        <time>2019-11-30T14:25:16Z</time>
      </trkpt>
      <trkpt lat="46.73239" lon="5.96464">
        <ele>704.4</ele>
        <time>2019-11-30T14:25:23Z</time>
      </trkpt>
      <trkpt lat="46.73235" lon="5.96461">
        <ele>703.7</ele>
        <time>2019-11-30T14:25:29Z</time>
      </trkpt>
      <trkpt lat="46.73231" lon="5.9646">
        <ele>703.4</ele>
        <time>2019-11-30T14:25:36Z</time>
      </trkpt>
      <trkpt lat="46.73226" lon="5.96457">
        <ele>703.4</ele>
        <time>2019-11-30T14:25:44Z</time>
      </trkpt>
      <trkpt lat="46.73223" lon="5.96452">
        <ele>704</ele>
        <time>2019-11-30T14:25:52Z</time>
      </trkpt>
      <trkpt lat="46.73222" lon="5.96445">
        <ele>705.4</ele>
        <time>2019-11-30T14:26:00Z</time>
      </trkpt>
      <trkpt lat="46.73224" lon="5.96439">
        <ele>706.4</ele>
        <time>2019-11-30T14:26:05Z</time>
      </trkpt>
      <trkpt lat="46.73224" lon="5.96432">
        <ele>707.9</ele>
        <time>2019-11-30T14:26:13Z</time>
      </trkpt>
      <trkpt lat="46.7322" lon="5.96426">
        <ele>710.2</ele>
        <time>2019-11-30T14:26:45Z</time>
      </trkpt>
      <trkpt lat="46.73219" lon="5.9642">
        <ele>710.2</ele>
        <time>2019-11-30T14:26:52Z</time>
      </trkpt>
      <trkpt lat="46.73215" lon="5.96414">
        <ele>710.2</ele>
        <time>2019-11-30T14:26:59Z</time>
      </trkpt>
      <trkpt lat="46.73211" lon="5.96409">
        <ele>710.2</ele>
        <time>2019-11-30T14:27:05Z</time>
      </trkpt>
      <trkpt lat="46.73207" lon="5.96405">
        <ele>710.3</ele>
        <time>2019-11-30T14:27:13Z</time>
      </trkpt>
      <trkpt lat="46.73202" lon="5.96404">
        <ele>710.4</ele>
        <time>2019-11-30T14:27:21Z</time>
      </trkpt>
      <trkpt lat="46.73197" lon="5.96402">
        <ele>710.7</ele>
        <time>2019-11-30T14:27:27Z</time>
      </trkpt>
      <trkpt lat="46.73193" lon="5.96401">
        <ele>711.3</ele>
        <time>2019-11-30T14:27:33Z</time>
      </trkpt>
      <trkpt lat="46.73188" lon="5.96398">
        <ele>712</ele>
        <time>2019-11-30T14:27:38Z</time>
      </trkpt>
      <trkpt lat="46.73183" lon="5.96395">
        <ele>712.8</ele>
        <time>2019-11-30T14:27:43Z</time>
      </trkpt>
      <trkpt lat="46.73179" lon="5.96391">
        <ele>713.7</ele>
        <time>2019-11-30T14:27:48Z</time>
      </trkpt>
      <trkpt lat="46.73175" lon="5.96391">
        <ele>715.1</ele>
        <time>2019-11-30T14:27:55Z</time>
      </trkpt>
      <trkpt lat="46.7317" lon="5.96393">
        <ele>716.6</ele>
        <time>2019-11-30T14:28:04Z</time>
      </trkpt>
      <trkpt lat="46.73165" lon="5.96393">
        <ele>717.2</ele>
        <time>2019-11-30T14:28:11Z</time>
      </trkpt>
      <trkpt lat="46.7316" lon="5.96393">
        <ele>717.6</ele>
        <time>2019-11-30T14:28:18Z</time>
      </trkpt>
      <trkpt lat="46.73155" lon="5.96393">
        <ele>717.8</ele>
        <time>2019-11-30T14:28:25Z</time>
      </trkpt>
      <trkpt lat="46.73149" lon="5.96391">
        <ele>717.6</ele>
        <time>2019-11-30T14:28:30Z</time>
      </trkpt>
      <trkpt lat="46.73144" lon="5.96389">
        <ele>717.5</ele>
        <time>2019-11-30T14:28:35Z</time>
      </trkpt>
      <trkpt lat="46.73139" lon="5.96387">
        <ele>717.5</ele>
        <time>2019-11-30T14:28:39Z</time>
      </trkpt>
      <trkpt lat="46.73134" lon="5.96383">
        <ele>717.3</ele>
        <time>2019-11-30T14:28:44Z</time>
      </trkpt>
      <trkpt lat="46.73129" lon="5.96382">
        <ele>717.5</ele>
        <time>2019-11-30T14:28:49Z</time>
      </trkpt>
      <trkpt lat="46.73125" lon="5.96382">
        <ele>718.1</ele>
        <time>2019-11-30T14:28:55Z</time>
      </trkpt>
      <trkpt lat="46.7312" lon="5.96382">
        <ele>719.1</ele>
        <time>2019-11-30T14:29:05Z</time>
      </trkpt>
      <trkpt lat="46.73116" lon="5.96387">
        <ele>719.5</ele>
        <time>2019-11-30T14:29:11Z</time>
      </trkpt>
      <trkpt lat="46.73113" lon="5.96392">
        <ele>719.6</ele>
        <time>2019-11-30T14:29:15Z</time>
      </trkpt>
      <trkpt lat="46.73109" lon="5.96396">
        <ele>719.8</ele>
        <time>2019-11-30T14:29:20Z</time>
      </trkpt>
      <trkpt lat="46.73104" lon="5.96397">
        <ele>719.3</ele>
        <time>2019-11-30T14:29:27Z</time>
      </trkpt>
      <trkpt lat="46.731" lon="5.96398">
        <ele>718.7</ele>
        <time>2019-11-30T14:29:33Z</time>
      </trkpt>
      <trkpt lat="46.73095" lon="5.96396">
        <ele>718.2</ele>
        <time>2019-11-30T14:29:38Z</time>
      </trkpt>
      <trkpt lat="46.73091" lon="5.96393">
        <ele>717.5</ele>
        <time>2019-11-30T14:29:44Z</time>
      </trkpt>
      <trkpt lat="46.73085" lon="5.96391">
        <ele>717.4</ele>
        <time>2019-11-30T14:29:47Z</time>
      </trkpt>
      <trkpt lat="46.7308" lon="5.96387">
        <ele>717.2</ele>
        <time>2019-11-30T14:29:50Z</time>
      </trkpt>
      <trkpt lat="46.73076" lon="5.96382">
        <ele>717.2</ele>
        <time>2019-11-30T14:29:54Z</time>
      </trkpt>
      <trkpt lat="46.73072" lon="5.96387">
        <ele>715.7</ele>
        <time>2019-11-30T14:30:41Z</time>
      </trkpt>
      <trkpt lat="46.73067" lon="5.96386">
        <ele>715.2</ele>
        <time>2019-11-30T14:30:50Z</time>
      </trkpt>
      <trkpt lat="46.73063" lon="5.96384">
        <ele>715.3</ele>
        <time>2019-11-30T14:30:56Z</time>
      </trkpt>
      <trkpt lat="46.73058" lon="5.96382">
        <ele>715.4</ele>
        <time>2019-11-30T14:31:02Z</time>
      </trkpt>
      <trkpt lat="46.73054" lon="5.96378">
        <ele>715.1</ele>
        <time>2019-11-30T14:31:13Z</time>
      </trkpt>
      <trkpt lat="46.7305" lon="5.96375">
        <ele>714.3</ele>
        <time>2019-11-30T14:31:19Z</time>
      </trkpt>
      <trkpt lat="46.73046" lon="5.9637">
        <ele>713.6</ele>
        <time>2019-11-30T14:31:24Z</time>
      </trkpt>
      <trkpt lat="46.73041" lon="5.96368">
        <ele>712.8</ele>
        <time>2019-11-30T14:31:29Z</time>
      </trkpt>
      <trkpt lat="46.73036" lon="5.96366">
        <ele>711.8</ele>
        <time>2019-11-30T14:31:34Z</time>
      </trkpt>
      <trkpt lat="46.73031" lon="5.96364">
        <ele>710.8</ele>
        <time>2019-11-30T14:31:39Z</time>
      </trkpt>
      <trkpt lat="46.73026" lon="5.96363">
        <ele>710</ele>
        <time>2019-11-30T14:31:43Z</time>
      </trkpt>
      <trkpt lat="46.73021" lon="5.96363">
        <ele>709.2</ele>
        <time>2019-11-30T14:31:48Z</time>
      </trkpt>
      <trkpt lat="46.73016" lon="5.96363">
        <ele>708.4</ele>
        <time>2019-11-30T14:31:54Z</time>
      </trkpt>
      <trkpt lat="46.73011" lon="5.96363">
        <ele>707.7</ele>
        <time>2019-11-30T14:31:59Z</time>
      </trkpt>
      <trkpt lat="46.73006" lon="5.9636">
        <ele>707.3</ele>
        <time>2019-11-30T14:32:03Z</time>
      </trkpt>
      <trkpt lat="46.73001" lon="5.96359">
        <ele>706.8</ele>
        <time>2019-11-30T14:32:08Z</time>
      </trkpt>
      <trkpt lat="46.72996" lon="5.96358">
        <ele>706.5</ele>
        <time>2019-11-30T14:32:12Z</time>
      </trkpt>
      <trkpt lat="46.72991" lon="5.96356">
        <ele>706.2</ele>
        <time>2019-11-30T14:32:17Z</time>
      </trkpt>
      <trkpt lat="46.72987" lon="5.96352">
        <ele>705.8</ele>
        <time>2019-11-30T14:32:22Z</time>
      </trkpt>
      <trkpt lat="46.72983" lon="5.96348">
        <ele>705.4</ele>
        <time>2019-11-30T14:32:27Z</time>
      </trkpt>
      <trkpt lat="46.72978" lon="5.96345">
        <ele>705</ele>
        <time>2019-11-30T14:32:33Z</time>
      </trkpt>
      <trkpt lat="46.72973" lon="5.96344">
        <ele>704.8</ele>
        <time>2019-11-30T14:32:38Z</time>
      </trkpt>
      <trkpt lat="46.72969" lon="5.96342">
        <ele>704.6</ele>
        <time>2019-11-30T14:32:43Z</time>
      </trkpt>
      <trkpt lat="46.72965" lon="5.9634">
        <ele>704.5</ele>
        <time>2019-11-30T14:32:46Z</time>
      </trkpt>
      <trkpt lat="46.7296" lon="5.96337">
        <ele>704.3</ele>
        <time>2019-11-30T14:32:51Z</time>
      </trkpt>
      <trkpt lat="46.72956" lon="5.96333">
        <ele>703.9</ele>
        <time>2019-11-30T14:32:56Z</time>
      </trkpt>
      <trkpt lat="46.72951" lon="5.96331">
        <ele>703.2</ele>
        <time>2019-11-30T14:33:02Z</time>
      </trkpt>
      <trkpt lat="46.72947" lon="5.96327">
        <ele>702.5</ele>
        <time>2019-11-30T14:33:07Z</time>
      </trkpt>
      <trkpt lat="46.72942" lon="5.96324">
        <ele>701.9</ele>
        <time>2019-11-30T14:33:12Z</time>
      </trkpt>
      <trkpt lat="46.72938" lon="5.96321">
        <ele>701</ele>
        <time>2019-11-30T14:33:17Z</time>
      </trkpt>
      <trkpt lat="46.72933" lon="5.96318">
        <ele>700.2</ele>
        <time>2019-11-30T14:33:22Z</time>
      </trkpt>
      <trkpt lat="46.72928" lon="5.96316">
        <ele>699.7</ele>
        <time>2019-11-30T14:33:25Z</time>
      </trkpt>
      <trkpt lat="46.72924" lon="5.96313">
        <ele>699.2</ele>
        <time>2019-11-30T14:33:29Z</time>
      </trkpt>
      <trkpt lat="46.72919" lon="5.96309">
        <ele>698.8</ele>
        <time>2019-11-30T14:33:34Z</time>
      </trkpt>
      <trkpt lat="46.72915" lon="5.96307">
        <ele>698.6</ele>
        <time>2019-11-30T14:33:39Z</time>
      </trkpt>
      <trkpt lat="46.72911" lon="5.96301">
        <ele>698.6</ele>
        <time>2019-11-30T14:33:44Z</time>
      </trkpt>
      <trkpt lat="46.72908" lon="5.96296">
        <ele>698.6</ele>
        <time>2019-11-30T14:33:48Z</time>
      </trkpt>
      <trkpt lat="46.72905" lon="5.9629">
        <ele>698.7</ele>
        <time>2019-11-30T14:33:53Z</time>
      </trkpt>
      <trkpt lat="46.72902" lon="5.96285">
        <ele>698.7</ele>
        <time>2019-11-30T14:33:59Z</time>
      </trkpt>
      <trkpt lat="46.72898" lon="5.96279">
        <ele>698.6</ele>
        <time>2019-11-30T14:34:03Z</time>
      </trkpt>
      <trkpt lat="46.72895" lon="5.96273">
        <ele>699.2</ele>
        <time>2019-11-30T14:34:23Z</time>
      </trkpt>
      <trkpt lat="46.72891" lon="5.96267">
        <ele>699.1</ele>
        <time>2019-11-30T14:34:27Z</time>
      </trkpt>
      <trkpt lat="46.72887" lon="5.96262">
        <ele>698.9</ele>
        <time>2019-11-30T14:34:32Z</time>
      </trkpt>
      <trkpt lat="46.72883" lon="5.96258">
        <ele>698.7</ele>
        <time>2019-11-30T14:34:36Z</time>
      </trkpt>
      <trkpt lat="46.72879" lon="5.96253">
        <ele>698.3</ele>
        <time>2019-11-30T14:34:40Z</time>
      </trkpt>
      <trkpt lat="46.72875" lon="5.96247">
        <ele>697.9</ele>
        <time>2019-11-30T14:34:45Z</time>
      </trkpt>
      <trkpt lat="46.72874" lon="5.96241">
        <ele>697.7</ele>
        <time>2019-11-30T14:34:49Z</time>
      </trkpt>
      <trkpt lat="46.72872" lon="5.96234">
        <ele>697.5</ele>
        <time>2019-11-30T14:34:54Z</time>
      </trkpt>
      <trkpt lat="46.72868" lon="5.96229">
        <ele>696.5</ele>
        <time>2019-11-30T14:35:03Z</time>
      </trkpt>
      <trkpt lat="46.72864" lon="5.96225">
        <ele>695.8</ele>
        <time>2019-11-30T14:35:09Z</time>
      </trkpt>
      <trkpt lat="46.7286" lon="5.96219">
        <ele>695.1</ele>
        <time>2019-11-30T14:35:15Z</time>
      </trkpt>
      <trkpt lat="46.72856" lon="5.96216">
        <ele>694.7</ele>
        <time>2019-11-30T14:35:20Z</time>
      </trkpt>
      <trkpt lat="46.72851" lon="5.96214">
        <ele>694.4</ele>
        <time>2019-11-30T14:35:24Z</time>
      </trkpt>
      <trkpt lat="46.72847" lon="5.9621">
        <ele>694.1</ele>
        <time>2019-11-30T14:35:28Z</time>
      </trkpt>
      <trkpt lat="46.72843" lon="5.96207">
        <ele>693.4</ele>
        <time>2019-11-30T14:35:34Z</time>
      </trkpt>
      <trkpt lat="46.7284" lon="5.96201">
        <ele>691.6</ele>
        <time>2019-11-30T14:35:47Z</time>
      </trkpt>
      <trkpt lat="46.72835" lon="5.96198">
        <ele>691.1</ele>
        <time>2019-11-30T14:35:51Z</time>
      </trkpt>
      <trkpt lat="46.72831" lon="5.96195">
        <ele>690.6</ele>
        <time>2019-11-30T14:35:55Z</time>
      </trkpt>
      <trkpt lat="46.72827" lon="5.9619">
        <ele>690.3</ele>
        <time>2019-11-30T14:36:00Z</time>
      </trkpt>
      <trkpt lat="46.72823" lon="5.96187">
        <ele>690</ele>
        <time>2019-11-30T14:36:05Z</time>
      </trkpt>
      <trkpt lat="46.72818" lon="5.96184">
        <ele>689.4</ele>
        <time>2019-11-30T14:36:11Z</time>
      </trkpt>
      <trkpt lat="46.72814" lon="5.96179">
        <ele>688.6</ele>
        <time>2019-11-30T14:36:16Z</time>
      </trkpt>
      <trkpt lat="46.72811" lon="5.96175">
        <ele>688</ele>
        <time>2019-11-30T14:36:20Z</time>
      </trkpt>
      <trkpt lat="46.72807" lon="5.96169">
        <ele>687.4</ele>
        <time>2019-11-30T14:36:25Z</time>
      </trkpt>
      <trkpt lat="46.72805" lon="5.96163">
        <ele>686.9</ele>
        <time>2019-11-30T14:36:30Z</time>
      </trkpt>
      <trkpt lat="46.72801" lon="5.96158">
        <ele>686.6</ele>
        <time>2019-11-30T14:36:35Z</time>
      </trkpt>
      <trkpt lat="46.72798" lon="5.96152">
        <ele>686.4</ele>
        <time>2019-11-30T14:36:40Z</time>
      </trkpt>
      <trkpt lat="46.72793" lon="5.96149">
        <ele>685.9</ele>
        <time>2019-11-30T14:36:46Z</time>
      </trkpt>
      <trkpt lat="46.72788" lon="5.96145">
        <ele>685.3</ele>
        <time>2019-11-30T14:36:52Z</time>
      </trkpt>
      <trkpt lat="46.72784" lon="5.96142">
        <ele>684.9</ele>
        <time>2019-11-30T14:36:56Z</time>
      </trkpt>
      <trkpt lat="46.72779" lon="5.9614">
        <ele>684.5</ele>
        <time>2019-11-30T14:37:00Z</time>
      </trkpt>
      <trkpt lat="46.72775" lon="5.96137">
        <ele>684.3</ele>
        <time>2019-11-30T14:37:04Z</time>
      </trkpt>
      <trkpt lat="46.7277" lon="5.96135">
        <ele>684</ele>
        <time>2019-11-30T14:37:09Z</time>
      </trkpt>
      <trkpt lat="46.72767" lon="5.96131">
        <ele>683.6</ele>
        <time>2019-11-30T14:37:16Z</time>
      </trkpt>
      <trkpt lat="46.72762" lon="5.96126">
        <ele>683.1</ele>
        <time>2019-11-30T14:37:24Z</time>
      </trkpt>
      <trkpt lat="46.72758" lon="5.96122">
        <ele>682.6</ele>
        <time>2019-11-30T14:37:30Z</time>
      </trkpt>
      <trkpt lat="46.72754" lon="5.96119">
        <ele>682.3</ele>
        <time>2019-11-30T14:37:36Z</time>
      </trkpt>
      <trkpt lat="46.72749" lon="5.96116">
        <ele>682</ele>
        <time>2019-11-30T14:37:41Z</time>
      </trkpt>
      <trkpt lat="46.72745" lon="5.96113">
        <ele>681.4</ele>
        <time>2019-11-30T14:37:46Z</time>
      </trkpt>
      <trkpt lat="46.72741" lon="5.9611">
        <ele>680.7</ele>
        <time>2019-11-30T14:37:51Z</time>
      </trkpt>
      <trkpt lat="46.72738" lon="5.96104">
        <ele>680.2</ele>
        <time>2019-11-30T14:37:55Z</time>
      </trkpt>
      <trkpt lat="46.72734" lon="5.96099">
        <ele>679.7</ele>
        <time>2019-11-30T14:38:00Z</time>
      </trkpt>
      <trkpt lat="46.7273" lon="5.96096">
        <ele>679</ele>
        <time>2019-11-30T14:38:06Z</time>
      </trkpt>
      <trkpt lat="46.72725" lon="5.96093">
        <ele>678.2</ele>
        <time>2019-11-30T14:38:13Z</time>
      </trkpt>
      <trkpt lat="46.7272" lon="5.9609">
        <ele>677.6</ele>
        <time>2019-11-30T14:38:21Z</time>
      </trkpt>
      <trkpt lat="46.72716" lon="5.9609">
        <ele>677</ele>
        <time>2019-11-30T14:38:28Z</time>
      </trkpt>
      <trkpt lat="46.72711" lon="5.96091">
        <ele>675.2</ele>
        <time>2019-11-30T14:38:38Z</time>
      </trkpt>
      <trkpt lat="46.72706" lon="5.9609">
        <ele>673.5</ele>
        <time>2019-11-30T14:38:45Z</time>
      </trkpt>
      <trkpt lat="46.72702" lon="5.96088">
        <ele>671.1</ele>
        <time>2019-11-30T14:38:52Z</time>
      </trkpt>
      <trkpt lat="46.72698" lon="5.96092">
        <ele>668.9</ele>
        <time>2019-11-30T14:39:02Z</time>
      </trkpt>
      <trkpt lat="46.72693" lon="5.96088">
        <ele>667.5</ele>
        <time>2019-11-30T14:39:08Z</time>
      </trkpt>
      <trkpt lat="46.7269" lon="5.96084">
        <ele>666</ele>
        <time>2019-11-30T14:39:13Z</time>
      </trkpt>
      <trkpt lat="46.72685" lon="5.96083">
        <ele>662.9</ele>
        <time>2019-11-30T14:39:24Z</time>
      </trkpt>
      <trkpt lat="46.72681" lon="5.96086">
        <ele>661.6</ele>
        <time>2019-11-30T14:39:30Z</time>
      </trkpt>
      <trkpt lat="46.72676" lon="5.96087">
        <ele>660.3</ele>
        <time>2019-11-30T14:39:37Z</time>
      </trkpt>
      <trkpt lat="46.72673" lon="5.96082">
        <ele>659.3</ele>
        <time>2019-11-30T14:39:43Z</time>
      </trkpt>
      <trkpt lat="46.72669" lon="5.96077">
        <ele>658.6</ele>
        <time>2019-11-30T14:39:48Z</time>
      </trkpt>
      <trkpt lat="46.72665" lon="5.96073">
        <ele>657.5</ele>
        <time>2019-11-30T14:39:56Z</time>
      </trkpt>
      <trkpt lat="46.7266" lon="5.96072">
        <ele>655.7</ele>
        <time>2019-11-30T14:40:05Z</time>
      </trkpt>
      <trkpt lat="46.72655" lon="5.96071">
        <ele>654.6</ele>
        <time>2019-11-30T14:40:10Z</time>
      </trkpt>
      <trkpt lat="46.7265" lon="5.96072">
        <ele>653.9</ele>
        <time>2019-11-30T14:40:14Z</time>
      </trkpt>
      <trkpt lat="46.72645" lon="5.96071">
        <ele>653.1</ele>
        <time>2019-11-30T14:40:19Z</time>
      </trkpt>
      <trkpt lat="46.7264" lon="5.9607">
        <ele>652.5</ele>
        <time>2019-11-30T14:40:24Z</time>
      </trkpt>
      <trkpt lat="46.72635" lon="5.96067">
        <ele>651.4</ele>
        <time>2019-11-30T14:40:30Z</time>
      </trkpt>
      <trkpt lat="46.7263" lon="5.96065">
        <ele>650</ele>
        <time>2019-11-30T14:40:37Z</time>
      </trkpt>
      <trkpt lat="46.72625" lon="5.96064">
        <ele>649.2</ele>
        <time>2019-11-30T14:40:41Z</time>
      </trkpt>
      <trkpt lat="46.72621" lon="5.96062">
        <ele>648.3</ele>
        <time>2019-11-30T14:40:46Z</time>
      </trkpt>
      <trkpt lat="46.72616" lon="5.9606">
        <ele>647.3</ele>
        <time>2019-11-30T14:40:54Z</time>
      </trkpt>
      <trkpt lat="46.72611" lon="5.96058">
        <ele>647</ele>
        <time>2019-11-30T14:40:59Z</time>
      </trkpt>
      <trkpt lat="46.72607" lon="5.96056">
        <ele>646.4</ele>
        <time>2019-11-30T14:41:05Z</time>
      </trkpt>
      <trkpt lat="46.72602" lon="5.96054">
        <ele>645.7</ele>
        <time>2019-11-30T14:41:11Z</time>
      </trkpt>
      <trkpt lat="46.72597" lon="5.96049">
        <ele>645</ele>
        <time>2019-11-30T14:41:17Z</time>
      </trkpt>
      <trkpt lat="46.72593" lon="5.96048">
        <ele>644</ele>
        <time>2019-11-30T14:41:23Z</time>
      </trkpt>
      <trkpt lat="46.72588" lon="5.96046">
        <ele>643.1</ele>
        <time>2019-11-30T14:41:30Z</time>
      </trkpt>
      <trkpt lat="46.72583" lon="5.96043">
        <ele>642.1</ele>
        <time>2019-11-30T14:41:36Z</time>
      </trkpt>
      <trkpt lat="46.72579" lon="5.96039">
        <ele>641</ele>
        <time>2019-11-30T14:41:41Z</time>
      </trkpt>
      <trkpt lat="46.72575" lon="5.96036">
        <ele>639.5</ele>
        <time>2019-11-30T14:41:47Z</time>
      </trkpt>
      <trkpt lat="46.72571" lon="5.96033">
        <ele>637.7</ele>
        <time>2019-11-30T14:41:53Z</time>
      </trkpt>
      <trkpt lat="46.72567" lon="5.96033">
        <ele>635.1</ele>
        <time>2019-11-30T14:42:03Z</time>
      </trkpt>
      <trkpt lat="46.72562" lon="5.96036">
        <ele>634.5</ele>
        <time>2019-11-30T14:42:09Z</time>
      </trkpt>
      <trkpt lat="46.72559" lon="5.96031">
        <ele>634.5</ele>
        <time>2019-11-30T14:42:20Z</time>
      </trkpt>
      <trkpt lat="46.72561" lon="5.96025">
        <ele>634.8</ele>
        <time>2019-11-30T14:42:30Z</time>
      </trkpt>
      <trkpt lat="46.72572" lon="5.96012">
        <ele>634.3</ele>
        <time>2019-11-30T14:42:49Z</time>
      </trkpt>
      <trkpt lat="46.72576" lon="5.96009">
        <ele>634</ele>
        <time>2019-11-30T14:42:53Z</time>
      </trkpt>
      <trkpt lat="46.7258" lon="5.96005">
        <ele>633.6</ele>
        <time>2019-11-30T14:42:58Z</time>
      </trkpt>
      <trkpt lat="46.72585" lon="5.96002">
        <ele>632.5</ele>
        <time>2019-11-30T14:43:10Z</time>
      </trkpt>
      <trkpt lat="46.72589" lon="5.96">
        <ele>631.4</ele>
        <time>2019-11-30T14:43:19Z</time>
      </trkpt>
      <trkpt lat="46.72594" lon="5.95998">
        <ele>630.7</ele>
        <time>2019-11-30T14:43:25Z</time>
      </trkpt>
      <trkpt lat="46.72599" lon="5.95997">
        <ele>630.2</ele>
        <time>2019-11-30T14:43:31Z</time>
      </trkpt>
      <trkpt lat="46.72604" lon="5.95998">
        <ele>630</ele>
        <time>2019-11-30T14:43:37Z</time>
      </trkpt>
      <trkpt lat="46.72609" lon="5.95999">
        <ele>629.9</ele>
        <time>2019-11-30T14:43:43Z</time>
      </trkpt>
      <trkpt lat="46.72614" lon="5.95998">
        <ele>629.5</ele>
        <time>2019-11-30T14:43:48Z</time>
      </trkpt>
      <trkpt lat="46.72619" lon="5.95997">
        <ele>628</ele>
        <time>2019-11-30T14:43:57Z</time>
      </trkpt>
      <trkpt lat="46.72624" lon="5.95995">
        <ele>626.8</ele>
        <time>2019-11-30T14:44:05Z</time>
      </trkpt>
      <trkpt lat="46.72629" lon="5.95994">
        <ele>626</ele>
        <time>2019-11-30T14:44:10Z</time>
      </trkpt>
      <trkpt lat="46.72633" lon="5.95992">
        <ele>624.6</ele>
        <time>2019-11-30T14:44:17Z</time>
      </trkpt>
      <trkpt lat="46.72638" lon="5.95991">
        <ele>624</ele>
        <time>2019-11-30T14:44:21Z</time>
      </trkpt>
      <trkpt lat="46.72643" lon="5.95989">
        <ele>623.6</ele>
        <time>2019-11-30T14:44:24Z</time>
      </trkpt>
      <trkpt lat="46.72648" lon="5.95988">
        <ele>623.1</ele>
        <time>2019-11-30T14:44:27Z</time>
      </trkpt>
      <trkpt lat="46.72653" lon="5.95988">
        <ele>622.6</ele>
        <time>2019-11-30T14:44:32Z</time>
      </trkpt>
      <trkpt lat="46.72663" lon="5.95989">
        <ele>620.8</ele>
        <time>2019-11-30T14:44:45Z</time>
      </trkpt>
      <trkpt lat="46.72667" lon="5.95987">
        <ele>619.9</ele>
        <time>2019-11-30T14:44:55Z</time>
      </trkpt>
      <trkpt lat="46.72672" lon="5.95987">
        <ele>619.7</ele>
        <time>2019-11-30T14:45:00Z</time>
      </trkpt>
      <trkpt lat="46.72678" lon="5.95986">
        <ele>619.2</ele>
        <time>2019-11-30T14:45:05Z</time>
      </trkpt>
      <trkpt lat="46.72682" lon="5.95985">
        <ele>618.8</ele>
        <time>2019-11-30T14:45:09Z</time>
      </trkpt>
      <trkpt lat="46.72686" lon="5.95981">
        <ele>618.4</ele>
        <time>2019-11-30T14:45:15Z</time>
      </trkpt>
      <trkpt lat="46.72691" lon="5.95979">
        <ele>617.6</ele>
        <time>2019-11-30T14:45:22Z</time>
      </trkpt>
      <trkpt lat="46.72697" lon="5.95978">
        <ele>616.6</ele>
        <time>2019-11-30T14:45:30Z</time>
      </trkpt>
      <trkpt lat="46.72701" lon="5.95979">
        <ele>615.7</ele>
        <time>2019-11-30T14:45:35Z</time>
      </trkpt>
      <trkpt lat="46.72711" lon="5.95979">
        <ele>612.7</ele>
        <time>2019-11-30T14:45:48Z</time>
      </trkpt>
      <trkpt lat="46.72717" lon="5.9598">
        <ele>611.9</ele>
        <time>2019-11-30T14:45:54Z</time>
      </trkpt>
      <trkpt lat="46.72722" lon="5.95982">
        <ele>611.1</ele>
        <time>2019-11-30T14:45:59Z</time>
      </trkpt>
      <trkpt lat="46.72726" lon="5.95982">
        <ele>610.4</ele>
        <time>2019-11-30T14:46:04Z</time>
      </trkpt>
      <trkpt lat="46.72731" lon="5.95983">
        <ele>609.6</ele>
        <time>2019-11-30T14:46:10Z</time>
      </trkpt>
      <trkpt lat="46.72735" lon="5.95986">
        <ele>609.2</ele>
        <time>2019-11-30T14:46:13Z</time>
      </trkpt>
      <trkpt lat="46.7274" lon="5.95988">
        <ele>608.3</ele>
        <time>2019-11-30T14:46:20Z</time>
      </trkpt>
      <trkpt lat="46.72744" lon="5.95993">
        <ele>607.2</ele>
        <time>2019-11-30T14:46:25Z</time>
      </trkpt>
      <trkpt lat="46.72749" lon="5.95996">
        <ele>606.6</ele>
        <time>2019-11-30T14:46:28Z</time>
      </trkpt>
      <trkpt lat="46.72754" lon="5.95999">
        <ele>606</ele>
        <time>2019-11-30T14:46:32Z</time>
      </trkpt>
      <trkpt lat="46.72758" lon="5.96">
        <ele>605.3</ele>
        <time>2019-11-30T14:46:37Z</time>
      </trkpt>
      <trkpt lat="46.72763" lon="5.96001">
        <ele>604.9</ele>
        <time>2019-11-30T14:46:41Z</time>
      </trkpt>
      <trkpt lat="46.72768" lon="5.96002">
        <ele>603.5</ele>
        <time>2019-11-30T14:46:49Z</time>
      </trkpt>
      <trkpt lat="46.72773" lon="5.96001">
        <ele>602</ele>
        <time>2019-11-30T14:46:55Z</time>
      </trkpt>
      <trkpt lat="46.72778" lon="5.96001">
        <ele>600.7</ele>
        <time>2019-11-30T14:47:00Z</time>
      </trkpt>
      <trkpt lat="46.72784" lon="5.96001">
        <ele>599.3</ele>
        <time>2019-11-30T14:47:05Z</time>
      </trkpt>
      <trkpt lat="46.72788" lon="5.96001">
        <ele>598.1</ele>
        <time>2019-11-30T14:47:09Z</time>
      </trkpt>
      <trkpt lat="46.72793" lon="5.95999">
        <ele>597.2</ele>
        <time>2019-11-30T14:47:13Z</time>
      </trkpt>
      <trkpt lat="46.72798" lon="5.95999">
        <ele>596.3</ele>
        <time>2019-11-30T14:47:17Z</time>
      </trkpt>
      <trkpt lat="46.72802" lon="5.95999">
        <ele>594.7</ele>
        <time>2019-11-30T14:47:28Z</time>
      </trkpt>
      <trkpt lat="46.72814" lon="5.96007">
        <ele>592</ele>
        <time>2019-11-30T14:47:56Z</time>
      </trkpt>
      <trkpt lat="46.72818" lon="5.96011">
        <ele>591.8</ele>
        <time>2019-11-30T14:48:04Z</time>
      </trkpt>
    </trkseg>
  </trk>
</gpx>